Observation data for McCamey on 01/18/2019      Previous  Date  Next       Current Mesonet Observations  Soil Data  Daily Summary Page  Observations in Plain Language
KMC4 180600Z 09004KT 12/05 A3008 RMK A01 T01230047  RH  060%=      5-min Rain = 0
KMC4 180601Z 08004KT 12/05 A3008 RMK A01 T01230047  RH  060%=      5-min Rain = 0
KMC4 180602Z 08004KT 12/05 A3008 RMK A01 T01220047  RH  060%=      5-min Rain = 0
KMC4 180603Z 08004KT 12/05 A3008 RMK A01 T01220047  RH  060%=      5-min Rain = 0
KMC4 180604Z 08004KT 12/05 A3008 RMK A01 T01210047  RH  060%=      5-min Rain = 0
KMC4 180605Z 08004KT 12/05 A3008 RMK A01 T01200047  RH  061%=      5-min Rain = 0
KMC4 180606Z 08004KT 12/05 A3008 RMK A01 T01190047  RH  061%=      5-min Rain = 0
KMC4 180607Z 08003KT 12/05 A3008 RMK A01 T01190047  RH  061%=      5-min Rain = 0
KMC4 180608Z 08003KT 12/05 A3008 RMK A01 T01180047  RH  062%=      5-min Rain = 0
KMC4 180609Z 08003KT 12/05 A3008 RMK A01 T01180046  RH  061%=      5-min Rain = 0
KMC4 180610Z 07002KT 12/05 A3008 RMK A01 T01200046  RH  061%=      5-min Rain = 0
KMC4 180611Z 08002KT 12/05 A3008 RMK A01 T01210046  RH  060%=      5-min Rain = 0
KMC4 180612Z 09003KT 12/05 A3008 RMK A01 T01220046  RH  060%=      5-min Rain = 0
KMC4 180613Z 10003KT 12/05 A3008 RMK A01 T01230046  RH  060%=      5-min Rain = 0
KMC4 180614Z 09003KT 12/05 A3008 RMK A01 T01220045  RH  059%=      5-min Rain = 0
KMC4 180615Z 10003KT 12/05 A3008 RMK A01 T01240045  RH  058%=      5-min Rain = 0
KMC4 180616Z 11003KT 13/05 A3008 RMK A01 T01250045  RH  058%=      5-min Rain = 0
KMC4 180617Z 12004KT 13/05 A3008 RMK A01 T01270045  RH  057%=      5-min Rain = 0
KMC4 180618Z 13005KT 13/05 A3008 RMK A01 T01290045  RH  057%=      5-min Rain = 0
KMC4 180619Z 11005KT 13/04 A3008 RMK A01 T01310044  RH  055%=      5-min Rain = 0
KMC4 180620Z 11005KT 13/04 A3008 RMK A01 T01340044  RH  055%=      5-min Rain = 0
KMC4 180621Z 10005KT 13/04 A3008 RMK A01 T01340044  RH  054%=      5-min Rain = 0
KMC4 180622Z 10005KT 14/04 A3008 RMK A01 T01350044  RH  054%=      5-min Rain = 0
KMC4 180623Z 11004KT 14/04 A3008 RMK A01 T01350044  RH  054%=      5-min Rain = 0
KMC4 180624Z 11005KT 14/04 A3008 RMK A01 T01350044  RH  054%=      5-min Rain = 0
KMC4 180625Z 12005KT 14/04 A3008 RMK A01 T01360044  RH  054%=      5-min Rain = 0
KMC4 180626Z 13005KT 14/04 A3008 RMK A01 T01370044  RH  053%=      5-min Rain = 0
KMC4 180627Z 12005KT 14/04 A3008 RMK A01 T01380044  RH  053%=      5-min Rain = 0
KMC4 180628Z 12005KT 14/04 A3008 RMK A01 T01390044  RH  053%=      5-min Rain = 0
KMC4 180629Z 12005KT 14/04 A3008 RMK A01 T01390044  RH  053%=      5-min Rain = 0
KMC4 180630Z 12007KT 14/04 A3008 RMK A01 T01390044  RH  053%=      5-min Rain = 0
KMC4 180631Z 12007KT 14/04 A3008 RMK A01 T01390044  RH  053%=      5-min Rain = 0
KMC4 180632Z 13006KT 14/05 A3008 RMK A01 T01390045  RH  053%=      5-min Rain = 0
KMC4 180633Z 13007KT 14/05 A3008 RMK A01 T01380045  RH  053%=      5-min Rain = 0
KMC4 180634Z 13007KT 14/05 A3008 RMK A01 T01380045  RH  054%=      5-min Rain = 0
KMC4 180635Z 13007KT 14/05 A3008 RMK A01 T01380045  RH  053%=      5-min Rain = 0
KMC4 180636Z 13007KT 14/05 A3008 RMK A01 T01380045  RH  053%=      5-min Rain = 0
KMC4 180637Z 13006KT 14/05 A3008 RMK A01 T01380045  RH  053%=      5-min Rain = 0
KMC4 180638Z 13006KT 14/05 A3008 RMK A01 T01380046  RH  054%=      5-min Rain = 0
KMC4 180639Z 13006KT 14/05 A3008 RMK A01 T01370045  RH  054%=      5-min Rain = 0
KMC4 180640Z 13007KT 14/05 A3008 RMK A01 T01360045  RH  054%=      5-min Rain = 0
KMC4 180641Z 12006KT 14/05 A3008 RMK A01 T01360045  RH  054%=      5-min Rain = 0
KMC4 180642Z 11008KT 14/05 A3008 RMK A01 T01380045  RH  054%=      5-min Rain = 0
KMC4 180643Z 12008KT 14/05 A3008 RMK A01 T01390046  RH  053%=      5-min Rain = 0
KMC4 180644Z 12009KT 14/05 A3008 RMK A01 T01390046  RH  053%=      5-min Rain = 0
KMC4 180645Z 12010KT 14/05 A3007 RMK A01 T01390046  RH  054%=      5-min Rain = 0
KMC4 180646Z 11009KT 14/05 A3007 RMK A01 T01390046  RH  053%=      5-min Rain = 0
KMC4 180647Z 11009KT 14/05 A3007 RMK A01 T01390046  RH  053%=      5-min Rain = 0
KMC4 180648Z 12008KT 14/05 A3007 RMK A01 T01390046  RH  053%=      5-min Rain = 0
KMC4 180649Z 13007KT 14/05 A3007 RMK A01 T01370046  RH  054%=      5-min Rain = 0
KMC4 180650Z 14008KT 14/05 A3007 RMK A01 T01360046  RH  055%=      5-min Rain = 0
KMC4 180651Z 15006KT 13/05 A3007 RMK A01 T01340046  RH  055%=      5-min Rain = 0
KMC4 180652Z 14005KT 13/05 A3007 RMK A01 T01330046  RH  056%=      5-min Rain = 0
KMC4 180653Z 13006KT 13/05 A3007 RMK A01 T01310046  RH  056%=      5-min Rain = 0
KMC4 180654Z 14006KT 13/05 A3007 RMK A01 T01300046  RH  057%=      5-min Rain = 0
KMC4 180655Z 13005KT 13/05 A3007 RMK A01 T01300046  RH  057%=      5-min Rain = 0
KMC4 180656Z 13005KT 13/05 A3007 RMK A01 T01290047  RH  057%=      5-min Rain = 0
KMC4 180657Z 13004KT 13/05 A3007 RMK A01 T01280047  RH  058%=      5-min Rain = 0
KMC4 180658Z 14004KT 13/05 A3007 RMK A01 T01270047  RH  058%=      5-min Rain = 0
KMC4 180659Z 14004KT 13/05 A3007 RMK A01 T01270047  RH  058%=      5-min Rain = 0
KMC4 180700Z 15004KT 13/05 A3007 RMK A01 T01270047  RH  058%=      5-min Rain = 0
KMC4 180701Z 14005KT 13/05 A3007 RMK A01 T01270047  RH  058%=      5-min Rain = 0
KMC4 180702Z 15005KT 13/05 A3007 RMK A01 T01260047  RH  059%=      5-min Rain = 0
KMC4 180703Z 14005KT 13/05 A3007 RMK A01 T01260047  RH  059%=      5-min Rain = 0
KMC4 180704Z 15006KT 13/05 A3007 RMK A01 T01260048  RH  059%=      5-min Rain = 0
KMC4 180705Z 13005KT 13/05 A3007 RMK A01 T01260047  RH  059%=      5-min Rain = 0
KMC4 180706Z 13005KT 13/05 A3007 RMK A01 T01260047  RH  059%=      5-min Rain = 0
KMC4 180707Z 12004KT 13/05 A3007 RMK A01 T01270047  RH  058%=      5-min Rain = 0
KMC4 180708Z 14004KT 13/05 A3007 RMK A01 T01270047  RH  058%=      5-min Rain = 0
KMC4 180709Z 15004KT 13/05 A3007 RMK A01 T01260048  RH  059%=      5-min Rain = 0
KMC4 180710Z 15007KT 13/05 A3007 RMK A01 T01260048  RH  059%=      5-min Rain = 0
KMC4 180711Z 15006KT 13/05 A3007 RMK A01 T01260048  RH  059%=      5-min Rain = 0
KMC4 180712Z 15005KT 13/05 A3007 RMK A01 T01280049  RH  059%=      5-min Rain = 0
KMC4 180713Z 16006KT 13/05 A3007 RMK A01 T01280049  RH  058%=      5-min Rain = 0
KMC4 180714Z 15006KT 13/05 A3007 RMK A01 T01280049  RH  058%=      5-min Rain = 0
KMC4 180715Z 15006KT 13/05 A3007 RMK A01 T01290050  RH  058%=      5-min Rain = 0
KMC4 180716Z 15006KT 13/05 A3006 RMK A01 T01300049  RH  058%=      5-min Rain = 0
KMC4 180717Z 15007KT 13/05 A3006 RMK A01 T01300050  RH  058%=      5-min Rain = 0
KMC4 180718Z 15007KT 13/05 A3006 RMK A01 T01300050  RH  058%=      5-min Rain = 0
KMC4 180719Z 15007KT 13/05 A3006 RMK A01 T01310050  RH  058%=      5-min Rain = 0
KMC4 180720Z 15007KT 13/05 A3006 RMK A01 T01320051  RH  058%=      5-min Rain = 0
KMC4 180721Z 15007KT 13/05 A3006 RMK A01 T01320051  RH  058%=      5-min Rain = 0
KMC4 180722Z 15007KT 13/05 A3006 RMK A01 T01320051  RH  058%=      5-min Rain = 0
KMC4 180723Z 15007KT 13/05 A3006 RMK A01 T01320051  RH  058%=      5-min Rain = 0
KMC4 180724Z 15007KT 13/05 A3006 RMK A01 T01320051  RH  058%=      5-min Rain = 0
KMC4 180725Z 15008KT 13/05 A3006 RMK A01 T01310051  RH  058%=      5-min Rain = 0
KMC4 180726Z 15007KT 13/05 A3006 RMK A01 T01320051  RH  058%=      5-min Rain = 0
KMC4 180727Z 15007KT 13/05 A3006 RMK A01 T01320051  RH  058%=      5-min Rain = 0
KMC4 180728Z 15006KT 13/05 A3006 RMK A01 T01320051  RH  058%=      5-min Rain = 0
KMC4 180729Z 15006KT 13/05 A3006 RMK A01 T01310051  RH  058%=      5-min Rain = 0
KMC4 180730Z 15006KT 13/05 A3006 RMK A01 T01310051  RH  058%=      5-min Rain = 0
KMC4 180731Z 14006KT 13/05 A3006 RMK A01 T01310051  RH  059%=      5-min Rain = 0
KMC4 180732Z 15006KT 13/05 A3006 RMK A01 T01300051  RH  059%=      5-min Rain = 0
KMC4 180733Z 15006KT 13/05 A3006 RMK A01 T01290051  RH  059%=      5-min Rain = 0
KMC4 180734Z 14006KT 13/05 A3006 RMK A01 T01290051  RH  059%=      5-min Rain = 0
KMC4 180735Z 14007KT 13/05 A3006 RMK A01 T01290051  RH  059%=      5-min Rain = 0
KMC4 180736Z 14006KT 13/05 A3006 RMK A01 T01300051  RH  059%=      5-min Rain = 0
KMC4 180737Z 14006KT 13/05 A3006 RMK A01 T01290051  RH  059%=      5-min Rain = 0
KMC4 180738Z 14006KT 13/05 A3006 RMK A01 T01280051  RH  059%=      5-min Rain = 0
KMC4 180739Z 14006KT 13/05 A3006 RMK A01 T01280051  RH  059%=      5-min Rain = 0
KMC4 180740Z 14007KT 13/05 A3006 RMK A01 T01270051  RH  060%=      5-min Rain = 0
KMC4 180741Z 14006KT 13/05 A3006 RMK A01 T01270051  RH  060%=      5-min Rain = 0
KMC4 180742Z 15006KT 13/05 A3006 RMK A01 T01260051  RH  060%=      5-min Rain = 0
KMC4 180743Z 14006KT 13/05 A3006 RMK A01 T01260051  RH  060%=      5-min Rain = 0
KMC4 180744Z 14006KT 13/05 A3005 RMK A01 T01260051  RH  060%=      5-min Rain = 0
KMC4 180745Z 14006KT 13/05 A3005 RMK A01 T01260051  RH  060%=      5-min Rain = 0
KMC4 180746Z 15006KT 13/05 A3005 RMK A01 T01260051  RH  060%=      5-min Rain = 0
KMC4 180747Z 15006KT 13/05 A3005 RMK A01 T01260051  RH  060%=      5-min Rain = 0
KMC4 180748Z 15006KT 13/05 A3005 RMK A01 T01250051  RH  060%=      5-min Rain = 0
KMC4 180749Z 15006KT 13/05 A3005 RMK A01 T01250051  RH  061%=      5-min Rain = 0
KMC4 180750Z 14005KT 12/05 A3005 RMK A01 T01240051  RH  061%=      5-min Rain = 0
KMC4 180751Z 14006KT 12/05 A3005 RMK A01 T01240050  RH  061%=      5-min Rain = 0
KMC4 180752Z 15006KT 12/05 A3005 RMK A01 T01240051  RH  061%=      5-min Rain = 0
KMC4 180753Z 15006KT 12/05 A3005 RMK A01 T01230050  RH  061%=      5-min Rain = 0
KMC4 180754Z 15006KT 12/05 A3005 RMK A01 T01230051  RH  061%=      5-min Rain = 0
KMC4 180755Z 15005KT 12/05 A3005 RMK A01 T01230050  RH  061%=      5-min Rain = 0
KMC4 180756Z 16006KT 12/05 A3005 RMK A01 T01220051  RH  061%=      5-min Rain = 0
KMC4 180757Z 17006KT 12/05 A3005 RMK A01 T01220050  RH  061%=      5-min Rain = 0
KMC4 180758Z 16006KT 12/05 A3005 RMK A01 T01230050  RH  061%=      5-min Rain = 0
KMC4 180759Z 15006KT 12/05 A3005 RMK A01 T01230049  RH  061%=      5-min Rain = 0
KMC4 180800Z 15006KT 12/05 A3005 RMK A01 T01240050  RH  060%=      5-min Rain = 0
KMC4 180801Z 15005KT 12/05 A3004 RMK A01 T01240050  RH  061%=      5-min Rain = 0
KMC4 180802Z 14005KT 12/05 A3004 RMK A01 T01230049  RH  061%=      5-min Rain = 0
KMC4 180803Z 14005KT 12/05 A3004 RMK A01 T01230050  RH  061%=      5-min Rain = 0
KMC4 180804Z 14006KT 12/05 A3004 RMK A01 T01230049  RH  061%=      5-min Rain = 0
KMC4 180805Z 13006KT 12/05 A3004 RMK A01 T01230049  RH  061%=      5-min Rain = 0
KMC4 180806Z 13006KT 12/05 A3004 RMK A01 T01230049  RH  061%=      5-min Rain = 0
KMC4 180807Z 13006KT 12/05 A3004 RMK A01 T01230048  RH  060%=      5-min Rain = 0
KMC4 180808Z 13006KT 12/05 A3004 RMK A01 T01240048  RH  060%=      5-min Rain = 0
KMC4 180809Z 13006KT 12/05 A3004 RMK A01 T01240048  RH  060%=      5-min Rain = 0
KMC4 180810Z 12005KT 13/05 A3004 RMK A01 T01250048  RH  059%=      5-min Rain = 0
KMC4 180811Z 12005KT 12/05 A3004 RMK A01 T01240048  RH  059%=      5-min Rain = 0
KMC4 180812Z 12005KT 12/05 A3004 RMK A01 T01230048  RH  060%=      5-min Rain = 0
KMC4 180813Z 12006KT 12/05 A3004 RMK A01 T01220047  RH  060%=      5-min Rain = 0
KMC4 180814Z 12006KT 12/05 A3004 RMK A01 T01220047  RH  060%=      5-min Rain = 0
KMC4 180815Z 13005KT 12/05 A3004 RMK A01 T01220048  RH  060%=      5-min Rain = 0
KMC4 180816Z 13005KT 12/05 A3004 RMK A01 T01230048  RH  060%=      5-min Rain = 0
KMC4 180817Z 13005KT 12/05 A3004 RMK A01 T01220047  RH  060%=      5-min Rain = 0
KMC4 180818Z 13004KT 12/05 A3004 RMK A01 T01220047  RH  060%=      5-min Rain = 0
KMC4 180819Z 14005KT 12/05 A3004 RMK A01 T01230048  RH  060%=      5-min Rain = 0
KMC4 180820Z 15006KT 12/05 A3004 RMK A01 T01220048  RH  060%=      5-min Rain = 0
KMC4 180821Z 15006KT 12/05 A3004 RMK A01 T01230048  RH  060%=      5-min Rain = 0
KMC4 180822Z 15008KT 12/05 A3004 RMK A01 T01240048  RH  060%=      5-min Rain = 0
KMC4 180823Z 15009KT 13/05 A3003 RMK A01 T01250048  RH  059%=      5-min Rain = 0
KMC4 180824Z 16008KT 13/05 A3003 RMK A01 T01270049  RH  059%=      5-min Rain = 0
KMC4 180825Z 16009KT 13/05 A3003 RMK A01 T01290049  RH  058%=      5-min Rain = 0
KMC4 180826Z 16009KT 13/05 A3003 RMK A01 T01320050  RH  057%=      5-min Rain = 0
KMC4 180827Z 16009KT 13/05 A3003 RMK A01 T01340050  RH  057%=      5-min Rain = 0
KMC4 180828Z 16011KT 14/05 A3003 RMK A01 T01350050  RH  056%=      5-min Rain = 0
KMC4 180829Z 16010KT 14/05 A3003 RMK A01 T01370049  RH  055%=      5-min Rain = 0
KMC4 180830Z 16009KT 14/05 A3003 RMK A01 T01370050  RH  055%=      5-min Rain = 0
KMC4 180831Z 16009KT 14/05 A3003 RMK A01 T01380050  RH  055%=      5-min Rain = 0
KMC4 180832Z 16009KT 14/05 A3003 RMK A01 T01380050  RH  055%=      5-min Rain = 0
KMC4 180833Z 16009KT 14/05 A3003 RMK A01 T01380049  RH  055%=      5-min Rain = 0
KMC4 180834Z 16008KT 14/05 A3003 RMK A01 T01380049  RH  055%=      5-min Rain = 0
KMC4 180835Z 16007KT 14/05 A3003 RMK A01 T01380049  RH  055%=      5-min Rain = 0
KMC4 180836Z 16007KT 14/05 A3003 RMK A01 T01380049  RH  055%=      5-min Rain = 0
KMC4 180837Z 16007KT 14/05 A3003 RMK A01 T01380049  RH  055%=      5-min Rain = 0
KMC4 180838Z 16008KT 14/05 A3003 RMK A01 T01370049  RH  055%=      5-min Rain = 0
KMC4 180839Z 17008KT 14/05 A3004 RMK A01 T01370049  RH  055%=      5-min Rain = 0
KMC4 180840Z 17007KT 14/05 A3004 RMK A01 T01360049  RH  055%=      5-min Rain = 0
KMC4 180841Z 17007KT 14/05 A3004 RMK A01 T01360049  RH  055%=      5-min Rain = 0
KMC4 180842Z 17007KT 14/05 A3004 RMK A01 T01360048  RH  055%=      5-min Rain = 0
KMC4 180843Z 17008KT 14/05 A3003 RMK A01 T01360048  RH  055%=      5-min Rain = 0
KMC4 180844Z 17008KT 14/05 A3003 RMK A01 T01360048  RH  055%=      5-min Rain = 0
KMC4 180845Z 17008KT 14/05 A3003 RMK A01 T01370048  RH  055%=      5-min Rain = 0
KMC4 180846Z 17007KT 14/05 A3003 RMK A01 T01380048  RH  055%=      5-min Rain = 0
KMC4 180847Z 16007KT 14/05 A3003 RMK A01 T01370048  RH  055%=      5-min Rain = 0
KMC4 180848Z 16007KT 14/05 A3003 RMK A01 T01370048  RH  055%=      5-min Rain = 0
KMC4 180849Z 16007KT 14/05 A3003 RMK A01 T01360048  RH  055%=      5-min Rain = 0
KMC4 180850Z 16008KT 14/05 A3003 RMK A01 T01350048  RH  056%=      5-min Rain = 0
KMC4 180851Z 16008KT 14/05 A3003 RMK A01 T01350048  RH  056%=      5-min Rain = 0
KMC4 180852Z 16007KT 14/05 A3003 RMK A01 T01350049  RH  056%=      5-min Rain = 0
KMC4 180853Z 16009KT 13/05 A3003 RMK A01 T01340049  RH  056%=      5-min Rain = 0
KMC4 180854Z 16009KT 13/05 A3003 RMK A01 T01340049  RH  056%=      5-min Rain = 0
KMC4 180855Z 16008KT 14/05 A3003 RMK A01 T01350050  RH  056%=      5-min Rain = 0
KMC4 180856Z 16008KT 14/05 A3003 RMK A01 T01360050  RH  056%=      5-min Rain = 0
KMC4 180857Z 16008KT 14/05 A3003 RMK A01 T01350051  RH  057%=      5-min Rain = 0
KMC4 180858Z 15008KT 14/05 A3003 RMK A01 T01350052  RH  057%=      5-min Rain = 0
KMC4 180859Z 16008KT 14/05 A3003 RMK A01 T01350053  RH  058%=      5-min Rain = 0
KMC4 180900Z 15008KT 14/05 A3003 RMK A01 T01350054  RH  058%=      5-min Rain = 0
KMC4 180901Z 16008KT 14/06 A3003 RMK A01 T01350056  RH  059%=      5-min Rain = 0
KMC4 180902Z 15008KT 14/06 A3003 RMK A01 T01350056  RH  059%=      5-min Rain = 0
KMC4 180903Z 16008KT 13/06 A3002 RMK A01 T01340057  RH  059%=      5-min Rain = 0
KMC4 180904Z 15008KT 13/06 A3002 RMK A01 T01340057  RH  060%=      5-min Rain = 0
KMC4 180905Z 15008KT 13/06 A3002 RMK A01 T01340058  RH  060%=      5-min Rain = 0
KMC4 180906Z 15008KT 13/06 A3002 RMK A01 T01340059  RH  060%=      5-min Rain = 0
KMC4 180907Z 15008KT 13/06 A3002 RMK A01 T01330059  RH  060%=      5-min Rain = 0
KMC4 180908Z 15009KT 13/06 A3002 RMK A01 T01330059  RH  061%=      5-min Rain = 0
KMC4 180909Z 15008KT 13/06 A3002 RMK A01 T01330059  RH  061%=      5-min Rain = 0
KMC4 180910Z 15008KT 13/06 A3002 RMK A01 T01330059  RH  061%=      5-min Rain = 0
KMC4 180911Z 15008KT 13/06 A3002 RMK A01 T01330059  RH  061%=      5-min Rain = 0
KMC4 180912Z 15008KT 13/06 A3002 RMK A01 T01330060  RH  061%=      5-min Rain = 0
KMC4 180913Z 15009KT 13/06 A3002 RMK A01 T01330060  RH  061%=      5-min Rain = 0
KMC4 180914Z 16008KT 13/06 A3002 RMK A01 T01330061  RH  061%=      5-min Rain = 0
KMC4 180915Z 15008KT 13/06 A3002 RMK A01 T01330061  RH  061%=      5-min Rain = 0
KMC4 180916Z 15008KT 13/06 A3002 RMK A01 T01330061  RH  061%=      5-min Rain = 0
KMC4 180917Z 15008KT 13/06 A3002 RMK A01 T01330061  RH  062%=      5-min Rain = 0
KMC4 180918Z 15009KT 13/06 A3002 RMK A01 T01330061  RH  062%=      5-min Rain = 0
KMC4 180919Z 16008KT 13/06 A3002 RMK A01 T01330061  RH  062%=      5-min Rain = 0
KMC4 180920Z 16008KT 13/06 A3002 RMK A01 T01330061  RH  062%=      5-min Rain = 0
KMC4 180921Z 16007KT 13/06 A3002 RMK A01 T01340062  RH  062%=      5-min Rain = 0
KMC4 180922Z 15007KT 13/06 A3002 RMK A01 T01340062  RH  062%=      5-min Rain = 0
KMC4 180923Z 16007KT 13/06 A3002 RMK A01 T01330062  RH  062%=      5-min Rain = 0
KMC4 180924Z 16007KT 13/06 A3002 RMK A01 T01320062  RH  062%=      5-min Rain = 0
KMC4 180925Z 16007KT 13/06 A3002 RMK A01 T01320062  RH  063%=      5-min Rain = 0
KMC4 180926Z 16007KT 13/06 A3002 RMK A01 T01320062  RH  063%=      5-min Rain = 0
KMC4 180927Z 16006KT 13/06 A3002 RMK A01 T01310063  RH  063%=      5-min Rain = 0
KMC4 180928Z 16006KT 13/06 A3002 RMK A01 T01310063  RH  063%=      5-min Rain = 0
KMC4 180929Z 15006KT 13/06 A3002 RMK A01 T01310063  RH  063%=      5-min Rain = 0
KMC4 180930Z 15006KT 13/06 A3002 RMK A01 T01310063  RH  063%=      5-min Rain = 0
KMC4 180931Z 15006KT 13/06 A3002 RMK A01 T01300063  RH  064%=      5-min Rain = 0
KMC4 180932Z 15006KT 13/06 A3002 RMK A01 T01290063  RH  064%=      5-min Rain = 0
KMC4 180933Z 15006KT 13/06 A3002 RMK A01 T01290063  RH  064%=      5-min Rain = 0
KMC4 180934Z 15005KT 13/06 A3002 RMK A01 T01280063  RH  065%=      5-min Rain = 0
KMC4 180935Z 14005KT 13/06 A3002 RMK A01 T01280064  RH  065%=      5-min Rain = 0
KMC4 180936Z 15005KT 13/06 A3002 RMK A01 T01280064  RH  065%=      5-min Rain = 0
KMC4 180937Z 14004KT 13/06 A3002 RMK A01 T01280064  RH  065%=      5-min Rain = 0
KMC4 180938Z 13005KT 13/07 A3002 RMK A01 T01280065  RH  065%=      5-min Rain = 0
KMC4 180939Z 13004KT 13/07 A3002 RMK A01 T01280065  RH  065%=      5-min Rain = 0
KMC4 180940Z 13004KT 13/07 A3002 RMK A01 T01280065  RH  065%=      5-min Rain = 0
KMC4 180941Z 13003KT 13/07 A3002 RMK A01 T01280065  RH  066%=      5-min Rain = 0
KMC4 180942Z 12004KT 13/07 A3002 RMK A01 T01280066  RH  066%=      5-min Rain = 0
KMC4 180943Z 12003KT 13/07 A3002 RMK A01 T01280066  RH  066%=      5-min Rain = 0
KMC4 180944Z 11003KT 13/07 A3002 RMK A01 T01280066  RH  066%=      5-min Rain = 0
KMC4 180945Z 10003KT 13/07 A3002 RMK A01 T01290066  RH  065%=      5-min Rain = 0
KMC4 180946Z 07003KT 13/07 A3002 RMK A01 T01300065  RH  065%=      5-min Rain = 0
KMC4 180947Z 05003KT 13/07 A3002 RMK A01 T01300065  RH  065%=      5-min Rain = 0
KMC4 180948Z 05003KT 13/06 A3002 RMK A01 T01270063  RH  065%=      5-min Rain = 0
KMC4 180949Z 05003KT 13/06 A3002 RMK A01 T01250061  RH  065%=      5-min Rain = 0
KMC4 180950Z 05004KT 12/06 A3002 RMK A01 T01230061  RH  066%=      5-min Rain = 0
KMC4 180951Z 06004KT 12/06 A3001 RMK A01 T01210060  RH  066%=      5-min Rain = 0
KMC4 180952Z 07004KT 12/06 A3002 RMK A01 T01200061  RH  067%=      5-min Rain = 0
KMC4 180953Z 09005KT 12/06 A3002 RMK A01 T01230064  RH  067%=      5-min Rain = 0
KMC4 180954Z 09004KT 13/06 A3002 RMK A01 T01250064  RH  066%=      5-min Rain = 0
KMC4 180955Z 11003KT 13/06 A3002 RMK A01 T01270064  RH  066%=      5-min Rain = 0
KMC4 180956Z 11004KT 13/07 A3002 RMK A01 T01280065  RH  066%=      5-min Rain = 0
KMC4 180957Z 12004KT 13/07 A3001 RMK A01 T01280065  RH  065%=      5-min Rain = 0
KMC4 180958Z 13004KT 13/07 A3001 RMK A01 T01290066  RH  066%=      5-min Rain = 0
KMC4 180959Z 13004KT 13/07 A3001 RMK A01 T01300067  RH  065%=      5-min Rain = 0
KMC4 181000Z 12004KT 13/07 A3001 RMK A01 T01320067  RH  065%=      5-min Rain = 0
KMC4 181001Z 13004KT 13/07 A3001 RMK A01 T01320067  RH  064%=      5-min Rain = 0
KMC4 181002Z 13005KT 13/07 A3001 RMK A01 T01320066  RH  064%=      5-min Rain = 0
KMC4 181003Z 14005KT 13/07 A3001 RMK A01 T01320066  RH  064%=      5-min Rain = 0
KMC4 181004Z 14005KT 13/07 A3001 RMK A01 T01310065  RH  064%=      5-min Rain = 0
KMC4 181005Z 14005KT 13/07 A3001 RMK A01 T01290065  RH  065%=      5-min Rain = 0
KMC4 181006Z 15005KT 13/06 A3001 RMK A01 T01270064  RH  065%=      5-min Rain = 0
KMC4 181007Z 15005KT 13/06 A3001 RMK A01 T01260064  RH  066%=      5-min Rain = 0
KMC4 181008Z 14005KT 13/06 A3001 RMK A01 T01250064  RH  066%=      5-min Rain = 0
KMC4 181009Z 14005KT 13/06 A3001 RMK A01 T01250064  RH  067%=      5-min Rain = 0
KMC4 181010Z 13005KT 12/06 A3001 RMK A01 T01240064  RH  066%=      5-min Rain = 0
KMC4 181011Z 14005KT 12/06 A3001 RMK A01 T01240064  RH  066%=      5-min Rain = 0
KMC4 181012Z 14005KT 12/06 A3001 RMK A01 T01240064  RH  067%=      5-min Rain = 0
KMC4 181013Z 14005KT 12/06 A3001 RMK A01 T01230064  RH  067%=      5-min Rain = 0
KMC4 181014Z 14005KT 12/06 A3001 RMK A01 T01220064  RH  067%=      5-min Rain = 0
KMC4 181015Z 15005KT 12/07 A3001 RMK A01 T01220065  RH  068%=      5-min Rain = 0
KMC4 181016Z 14005KT 12/07 A3001 RMK A01 T01230067  RH  068%=      5-min Rain = 0
KMC4 181017Z 15004KT 12/07 A3001 RMK A01 T01240066  RH  068%=      5-min Rain = 0
KMC4 181018Z 15005KT 12/07 A3001 RMK A01 T01240066  RH  068%=      5-min Rain = 0
KMC4 181019Z 14004KT 12/07 A3001 RMK A01 T01240067  RH  068%=      5-min Rain = 0
KMC4 181020Z 14004KT 12/07 A3001 RMK A01 T01240067  RH  068%=      5-min Rain = 0
KMC4 181021Z 14004KT 12/07 A3001 RMK A01 T01240067  RH  068%=      5-min Rain = 0
KMC4 181022Z 14004KT 12/07 A3001 RMK A01 T01230067  RH  068%=      5-min Rain = 0
KMC4 181023Z 14004KT 12/07 A3001 RMK A01 T01230067  RH  069%=      5-min Rain = 0
KMC4 181024Z 14003KT 12/07 A3001 RMK A01 T01230068  RH  069%=      5-min Rain = 0
KMC4 181025Z 13003KT 12/07 A3001 RMK A01 T01240067  RH  068%=      5-min Rain = 0
KMC4 181026Z 12003KT 12/07 A30 RMK A01 T01230067  RH  069%=      5-min Rain = 0
KMC4 181027Z 09002KT 12/07 A30 RMK A01 T01240069  RH  069%=      5-min Rain = 0
KMC4 181028Z 07002KT 13/07 A30 RMK A01 T01250068  RH  068%=      5-min Rain = 0
KMC4 181029Z 07002KT 12/07 A30 RMK A01 T01240066  RH  068%=      5-min Rain = 0
KMC4 181030Z 09002KT 12/07 A30 RMK A01 T01210065  RH  069%=      5-min Rain = 0
KMC4 181031Z 08002KT 12/07 A30 RMK A01 T01190065  RH  069%=      5-min Rain = 0
KMC4 181032Z 10002KT 12/07 A30 RMK A01 T01190065  RH  069%=      5-min Rain = 0
KMC4 181033Z 13003KT 12/06 A30 RMK A01 T01190064  RH  069%=      5-min Rain = 0
KMC4 181034Z 14003KT 12/06 A30 RMK A01 T01180064  RH  069%=      5-min Rain = 0
KMC4 181035Z 15003KT 12/06 A30 RMK A01 T01180064  RH  069%=      5-min Rain = 0
KMC4 181036Z 15002KT 12/07 A30 RMK A01 T01190065  RH  069%=      5-min Rain = 0
KMC4 181037Z 15002KT 12/07 A30 RMK A01 T01200065  RH  069%=      5-min Rain = 0
KMC4 181038Z 16002KT 12/06 A30 RMK A01 T01200064  RH  069%=      5-min Rain = 0
KMC4 181039Z 16002KT 12/06 A30 RMK A01 T01200064  RH  069%=      5-min Rain = 0
KMC4 181040Z 15002KT 12/07 A30 RMK A01 T01190065  RH  069%=      5-min Rain = 0
KMC4 181041Z 13002KT 12/06 A30 RMK A01 T01180064  RH  069%=      5-min Rain = 0
KMC4 181042Z 12002KT 12/06 A30 RMK A01 T01190064  RH  069%=      5-min Rain = 0
KMC4 181043Z 12002KT 12/06 A30 RMK A01 T01170062  RH  069%=      5-min Rain = 0
KMC4 181044Z 12002KT 12/06 A30 RMK A01 T01150061  RH  070%=      5-min Rain = 0
KMC4 181045Z 12001KT 11/06 A30 RMK A01 T01130060  RH  070%=      5-min Rain = 0
KMC4 181046Z 09001KT 11/06 A30 RMK A01 T01100059  RH  071%=      5-min Rain = 0
KMC4 181047Z 06002KT 11/06 A30 RMK A01 T01080059  RH  071%=      5-min Rain = 0
KMC4 181048Z 05003KT 11/06 A30 RMK A01 T01060058  RH  072%=      5-min Rain = 0
KMC4 181049Z 04003KT 10/06 A30 RMK A01 T01040058  RH  073%=      5-min Rain = 0
KMC4 181050Z 03003KT 10/06 A30 RMK A01 T01030058  RH  074%=      5-min Rain = 0
KMC4 181051Z 04003KT 10/06 A30 RMK A01 T01030058  RH  074%=      5-min Rain = 0
KMC4 181052Z 04003KT 10/06 A2999 RMK A01 T01030058  RH  074%=      5-min Rain = 0
KMC4 181053Z 05003KT 10/06 A2999 RMK A01 T01030058  RH  074%=      5-min Rain = 0
KMC4 181054Z 06003KT 10/06 A2999 RMK A01 T01020057  RH  074%=      5-min Rain = 0
KMC4 181055Z 07003KT 10/06 A2999 RMK A01 T01010057  RH  074%=      5-min Rain = 0
KMC4 181056Z 07003KT 10/06 A2999 RMK A01 T01010056  RH  074%=      5-min Rain = 0
KMC4 181057Z 08003KT 10/06 A2999 RMK A01 T01000055  RH  073%=      5-min Rain = 0
KMC4 181058Z 08003KT 10/05 A2999 RMK A01 T01000054  RH  073%=      5-min Rain = 0
KMC4 181059Z 09003KT 10/05 A2999 RMK A01 T01000054  RH  073%=      5-min Rain = 0
KMC4 181100Z 09003KT 10/05 A2999 RMK A01 T00990054  RH  073%=      5-min Rain = 0
KMC4 181101Z 09003KT 10/05 A2999 RMK A01 T00980053  RH  074%=      5-min Rain = 0
KMC4 181102Z 09003KT 10/05 A2999 RMK A01 T00980053  RH  074%=      5-min Rain = 0
KMC4 181103Z 09003KT 10/05 A2999 RMK A01 T00970053  RH  074%=      5-min Rain = 0
KMC4 181104Z 09003KT 10/05 A2999 RMK A01 T00960053  RH  074%=      5-min Rain = 0
KMC4 181105Z 10003KT 10/05 A2998 RMK A01 T00960053  RH  074%=      5-min Rain = 0
KMC4 181106Z 09003KT 10/05 A2998 RMK A01 T00960053  RH  074%=      5-min Rain = 0
KMC4 181107Z 09003KT 10/05 A2998 RMK A01 T00960053  RH  074%=      5-min Rain = 0
KMC4 181108Z 09003KT 10/05 A2998 RMK A01 T00960052  RH  074%=      5-min Rain = 0
KMC4 181109Z 09003KT 10/05 A2998 RMK A01 T00950052  RH  074%=      5-min Rain = 0
KMC4 181110Z 08003KT 09/05 A2998 RMK A01 T00940052  RH  075%=      5-min Rain = 0
KMC4 181111Z 07003KT 09/05 A2998 RMK A01 T00940052  RH  075%=      5-min Rain = 0
KMC4 181112Z 05003KT 09/05 A2998 RMK A01 T00940052  RH  075%=      5-min Rain = 0
KMC4 181113Z 05003KT 10/05 A2998 RMK A01 T00950052  RH  075%=      5-min Rain = 0
KMC4 181114Z 05003KT 10/05 A2998 RMK A01 T00960053  RH  074%=      5-min Rain = 0
KMC4 181115Z 06003KT 10/05 A2998 RMK A01 T00980053  RH  074%=      5-min Rain = 0
KMC4 181116Z 07003KT 10/05 A2998 RMK A01 T00980053  RH  073%=      5-min Rain = 0
KMC4 181117Z 07003KT 10/05 A2998 RMK A01 T00980053  RH  073%=      5-min Rain = 0
KMC4 181118Z 07003KT 10/05 A2998 RMK A01 T00980053  RH  073%=      5-min Rain = 0
KMC4 181119Z 07003KT 10/05 A2998 RMK A01 T00990053  RH  073%=      5-min Rain = 0
KMC4 181120Z 07003KT 10/05 A2998 RMK A01 T00980053  RH  073%=      5-min Rain = 0
KMC4 181121Z 07004KT 10/05 A2998 RMK A01 T00970052  RH  074%=      5-min Rain = 0
KMC4 181122Z 08004KT 10/05 A2998 RMK A01 T00970052  RH  074%=      5-min Rain = 0
KMC4 181123Z 08003KT 10/05 A2998 RMK A01 T00970053  RH  074%=      5-min Rain = 0
KMC4 181124Z 08003KT 10/05 A2997 RMK A01 T00960052  RH  074%=      5-min Rain = 0
KMC4 181125Z 08002KT 10/05 A2997 RMK A01 T00960052  RH  074%=      5-min Rain = 0
KMC4 181126Z 08003KT 10/05 A2997 RMK A01 T00950052  RH  075%=      5-min Rain = 0
KMC4 181127Z 08003KT 10/05 A2997 RMK A01 T00950053  RH  075%=      5-min Rain = 0
KMC4 181128Z 08002KT 10/05 A2997 RMK A01 T00960054  RH  075%=      5-min Rain = 0
KMC4 181129Z 08002KT 10/05 A2997 RMK A01 T00970054  RH  075%=      5-min Rain = 0
KMC4 181130Z 08002KT 10/05 A2997 RMK A01 T00980054  RH  074%=      5-min Rain = 0
KMC4 181131Z 08002KT 10/05 A2997 RMK A01 T00980054  RH  074%=      5-min Rain = 0
KMC4 181132Z 06002KT 10/05 A2997 RMK A01 T00980054  RH  074%=      5-min Rain = 0
KMC4 181133Z 05002KT 10/06 A2997 RMK A01 T00990055  RH  074%=      5-min Rain = 0
KMC4 181134Z 06002KT 10/06 A2997 RMK A01 T01000056  RH  074%=      5-min Rain = 0
KMC4 181135Z 06002KT 10/06 A2997 RMK A01 T01000056  RH  074%=      5-min Rain = 0
KMC4 181136Z 06002KT 10/06 A2997 RMK A01 T01010057  RH  074%=      5-min Rain = 0
KMC4 181137Z 06002KT 10/06 A2997 RMK A01 T01020056  RH  073%=      5-min Rain = 0
KMC4 181138Z 06003KT 10/06 A2997 RMK A01 T01000055  RH  073%=      5-min Rain = 0
KMC4 181139Z 07003KT 10/05 A2997 RMK A01 T00980053  RH  074%=      5-min Rain = 0
KMC4 181140Z 06003KT 10/05 A2996 RMK A01 T00950053  RH  075%=      5-min Rain = 0
KMC4 181141Z 07003KT 09/05 A2996 RMK A01 T00930053  RH  076%=      5-min Rain = 0
KMC4 181142Z 07003KT 09/05 A2996 RMK A01 T00920053  RH  077%=      5-min Rain = 0
KMC4 181143Z 08003KT 09/05 A2996 RMK A01 T00930054  RH  077%=      5-min Rain = 0
KMC4 181144Z 09002KT 09/05 A2996 RMK A01 T00920053  RH  077%=      5-min Rain = 0
KMC4 181145Z 09003KT 09/05 A2996 RMK A01 T00900053  RH  077%=      5-min Rain = 0
KMC4 181146Z 09003KT 09/05 A2996 RMK A01 T00900053  RH  078%=      5-min Rain = 0
KMC4 181147Z 10003KT 09/05 A2996 RMK A01 T00900054  RH  078%=      5-min Rain = 0
KMC4 181148Z 10001KT 09/05 A2996 RMK A01 T00900053  RH  078%=      5-min Rain = 0
KMC4 181149Z 11002KT 09/05 A2996 RMK A01 T00880051  RH  077%=      5-min Rain = 0
KMC4 181150Z 11002KT 09/05 A2996 RMK A01 T00860050  RH  078%=      5-min Rain = 0
KMC4 181151Z 10003KT 08/05 A2996 RMK A01 T00840049  RH  079%=      5-min Rain = 0
KMC4 181152Z 10003KT 08/05 A2996 RMK A01 T00830050  RH  080%=      5-min Rain = 0
KMC4 181153Z 10002KT 08/05 A2996 RMK A01 T00830050  RH  080%=      5-min Rain = 0
KMC4 181154Z 09002KT 08/05 A2996 RMK A01 T00820050  RH  080%=      5-min Rain = 0
KMC4 181155Z 07001KT 08/05 A2996 RMK A01 T00820050  RH  080%=      5-min Rain = 0
KMC4 181156Z 05001KT 08/05 A2996 RMK A01 T00810049  RH  080%=      5-min Rain = 0
KMC4 181157Z 07002KT 08/05 A2996 RMK A01 T00810050  RH  081%=      5-min Rain = 0
KMC4 181158Z 05001KT 08/05 A2996 RMK A01 T00810052  RH  082%=      5-min Rain = 0
KMC4 181159Z 03002KT 08/05 A2996 RMK A01 T00810051  RH  081%=      5-min Rain = 0
KMC4 181200Z 04002KT 08/05 A2996 RMK A01 T00810050  RH  081%=      5-min Rain = 0
KMC4 181201Z 04002KT 08/05 A2996 RMK A01 T00800050  RH  081%=      5-min Rain = 0
KMC4 181202Z 04002KT 08/05 A2996 RMK A01 T00800050  RH  082%=      5-min Rain = 0
KMC4 181203Z 04002KT 08/05 A2996 RMK A01 T00800051  RH  082%=      5-min Rain = 0
KMC4 181204Z 04002KT 08/05 A2996 RMK A01 T00790051  RH  082%=      5-min Rain = 0
KMC4 181205Z 04002KT 08/05 A2996 RMK A01 T00790051  RH  082%=      5-min Rain = 0
KMC4 181206Z 04002KT 08/05 A2996 RMK A01 T00790051  RH  083%=      5-min Rain = 0
KMC4 181207Z 03001KT 08/05 A2996 RMK A01 T00800051  RH  082%=      5-min Rain = 0
KMC4 181208Z 01001KT 08/05 A2996 RMK A01 T00800050  RH  082%=      5-min Rain = 0
KMC4 181209Z 01001KT 08/05 A2996 RMK A01 T00790050  RH  082%=      5-min Rain = 0
KMC4 181210Z 02002KT 08/05 A2996 RMK A01 T00780051  RH  083%=      5-min Rain = 0
KMC4 181211Z 00001KT 08/05 A2996 RMK A01 T00790051  RH  082%=      5-min Rain = 0
KMC4 181212Z 00001KT 08/05 A2996 RMK A01 T00780050  RH  082%=      5-min Rain = 0
KMC4 181213Z 02003KT 08/05 A2996 RMK A01 T00790050  RH  082%=      5-min Rain = 0
KMC4 181214Z 02002KT 08/05 A2996 RMK A01 T00790050  RH  082%=      5-min Rain = 0
KMC4 181215Z 02001KT 08/05 A2996 RMK A01 T00780049  RH  082%=      5-min Rain = 0
KMC4 181216Z 02000KT 08/05 A2996 RMK A01 T00780049  RH  082%=      5-min Rain = 0
KMC4 181217Z 01003KT 08/05 A2996 RMK A01 T00770049  RH  082%=      5-min Rain = 0
KMC4 181218Z 01003KT 08/05 A2996 RMK A01 T00770050  RH  083%=      5-min Rain = 0
KMC4 181219Z 02003KT 08/05 A2996 RMK A01 T00770049  RH  082%=      5-min Rain = 0
KMC4 181220Z 03003KT 08/05 A2996 RMK A01 T00770049  RH  082%=      5-min Rain = 0
KMC4 181221Z 03003KT 08/05 A2996 RMK A01 T00770049  RH  082%=      5-min Rain = 0
KMC4 181222Z 03002KT 08/05 A2996 RMK A01 T00780050  RH  082%=      5-min Rain = 0
KMC4 181223Z 04002KT 08/05 A2996 RMK A01 T00790050  RH  082%=      5-min Rain = 0
KMC4 181224Z 04002KT 08/05 A2996 RMK A01 T00800050  RH  082%=      5-min Rain = 0
KMC4 181225Z 04002KT 08/05 A2996 RMK A01 T00800050  RH  081%=      5-min Rain = 0
KMC4 181226Z 04002KT 08/05 A2996 RMK A01 T00800050  RH  081%=      5-min Rain = 0
KMC4 181227Z 04001KT 08/05 A2996 RMK A01 T00800050  RH  081%=      5-min Rain = 0
KMC4 181228Z 04002KT 08/05 A2996 RMK A01 T00800050  RH  082%=      5-min Rain = 0
KMC4 181229Z 05002KT 08/05 A2996 RMK A01 T00800050  RH  081%=      5-min Rain = 0
KMC4 181230Z 06002KT 08/05 A2996 RMK A01 T00800050  RH  081%=      5-min Rain = 0
KMC4 181231Z 04002KT 08/05 A2996 RMK A01 T00800050  RH  081%=      5-min Rain = 0
KMC4 181232Z 03002KT 08/05 A2996 RMK A01 T00790048  RH  081%=      5-min Rain = 0
KMC4 181233Z 03003KT 08/05 A2996 RMK A01 T00780049  RH  082%=      5-min Rain = 0
KMC4 181234Z 02002KT 08/05 A2996 RMK A01 T00770049  RH  082%=      5-min Rain = 0
KMC4 181235Z 06001KT 08/05 A2996 RMK A01 T00770050  RH  083%=      5-min Rain = 0
KMC4 181236Z 09002KT 08/05 A2995 RMK A01 T00770050  RH  083%=      5-min Rain = 0
KMC4 181237Z 09002KT 08/05 A2995 RMK A01 T00780050  RH  082%=      5-min Rain = 0
KMC4 181238Z 10002KT 08/05 A2995 RMK A01 T00780049  RH  082%=      5-min Rain = 0
KMC4 181239Z 10002KT 08/05 A2995 RMK A01 T00780049  RH  082%=      5-min Rain = 0
KMC4 181240Z 10003KT 08/05 A2995 RMK A01 T00780049  RH  082%=      5-min Rain = 0
KMC4 181241Z 09002KT 08/05 A2995 RMK A01 T00780049  RH  082%=      5-min Rain = 0
KMC4 181242Z 09002KT 08/05 A2995 RMK A01 T00780049  RH  082%=      5-min Rain = 0
KMC4 181243Z 10001KT 08/05 A2995 RMK A01 T00770048  RH  082%=      5-min Rain = 0
KMC4 181244Z 11001KT 08/05 A2995 RMK A01 T00760048  RH  082%=      5-min Rain = 0
KMC4 181245Z 12001KT 08/05 A2995 RMK A01 T00760049  RH  083%=      5-min Rain = 0
KMC4 181246Z 12001KT 08/05 A2995 RMK A01 T00760048  RH  082%=      5-min Rain = 0
KMC4 181247Z 12001KT 08/05 A2995 RMK A01 T00760048  RH  082%=      5-min Rain = 0
KMC4 181248Z 12001KT 08/05 A2995 RMK A01 T00760048  RH  082%=      5-min Rain = 0
KMC4 181249Z 12001KT 08/05 A2995 RMK A01 T00750048  RH  083%=      5-min Rain = 0
KMC4 181250Z 11001KT 08/05 A2995 RMK A01 T00750048  RH  083%=      5-min Rain = 0
KMC4 181251Z 11002KT 08/05 A2995 RMK A01 T00750048  RH  083%=      5-min Rain = 0
KMC4 181252Z 12001KT 08/05 A2995 RMK A01 T00760047  RH  082%=      5-min Rain = 0
KMC4 181253Z 12001KT 08/05 A2995 RMK A01 T00760048  RH  082%=      5-min Rain = 0
KMC4 181254Z 12002KT 08/05 A2995 RMK A01 T00750047  RH  083%=      5-min Rain = 0
KMC4 181255Z 11001KT 08/05 A2995 RMK A01 T00750048  RH  083%=      5-min Rain = 0
KMC4 181256Z 10001KT 08/05 A2995 RMK A01 T00750048  RH  083%=      5-min Rain = 0
KMC4 181257Z 09001KT 07/05 A2994 RMK A01 T00740047  RH  083%=      5-min Rain = 0
KMC4 181258Z 10001KT 07/05 A2994 RMK A01 T00740048  RH  083%=      5-min Rain = 0
KMC4 181259Z 09001KT 07/05 A2995 RMK A01 T00740048  RH  083%=      5-min Rain = 0
KMC4 181300Z 07001KT 07/05 A2995 RMK A01 T00740047  RH  083%=      5-min Rain = 0
KMC4 181301Z 06002KT 07/05 A2995 RMK A01 T00740048  RH  083%=      5-min Rain = 0
KMC4 181302Z 06002KT 07/05 A2995 RMK A01 T00740048  RH  084%=      5-min Rain = 0
KMC4 181303Z 05003KT 07/05 A2995 RMK A01 T00740048  RH  084%=      5-min Rain = 0
KMC4 181304Z 06003KT 07/05 A2995 RMK A01 T00740048  RH  084%=      5-min Rain = 0
KMC4 181305Z 05003KT 07/05 A2994 RMK A01 T00740049  RH  084%=      5-min Rain = 0
KMC4 181306Z 05003KT 08/05 A2994 RMK A01 T00760050  RH  084%=      5-min Rain = 0
KMC4 181307Z 05003KT 08/05 A2994 RMK A01 T00760050  RH  083%=      5-min Rain = 0
KMC4 181308Z 05004KT 08/05 A2994 RMK A01 T00770050  RH  083%=      5-min Rain = 0
KMC4 181309Z 05003KT 08/05 A2994 RMK A01 T00770049  RH  083%=      5-min Rain = 0
KMC4 181310Z 05003KT 08/05 A2994 RMK A01 T00770049  RH  083%=      5-min Rain = 0
KMC4 181311Z 06003KT 08/05 A2994 RMK A01 T00780050  RH  083%=      5-min Rain = 0
KMC4 181312Z 06003KT 08/05 A2994 RMK A01 T00780049  RH  082%=      5-min Rain = 0
KMC4 181313Z 06003KT 08/05 A2994 RMK A01 T00790050  RH  082%=      5-min Rain = 0
KMC4 181314Z 07002KT 08/05 A2994 RMK A01 T00800051  RH  082%=      5-min Rain = 0
KMC4 181315Z 08002KT 08/05 A2994 RMK A01 T00810051  RH  081%=      5-min Rain = 0
KMC4 181316Z 07002KT 08/05 A2994 RMK A01 T00820051  RH  081%=      5-min Rain = 0
KMC4 181317Z 08002KT 08/05 A2994 RMK A01 T00830051  RH  080%=      5-min Rain = 0
KMC4 181318Z 07002KT 08/05 A2994 RMK A01 T00830050  RH  080%=      5-min Rain = 0
KMC4 181319Z 07002KT 08/05 A2994 RMK A01 T00820049  RH  079%=      5-min Rain = 0
KMC4 181320Z 07002KT 08/05 A2994 RMK A01 T00800048  RH  080%=      5-min Rain = 0
KMC4 181321Z 07003KT 08/05 A2994 RMK A01 T00790048  RH  081%=      5-min Rain = 0
KMC4 181322Z 08003KT 08/05 A2994 RMK A01 T00780048  RH  081%=      5-min Rain = 0
KMC4 181323Z 08002KT 08/05 A2994 RMK A01 T00770047  RH  081%=      5-min Rain = 0
KMC4 181324Z 08002KT 08/05 A2994 RMK A01 T00770048  RH  082%=      5-min Rain = 0
KMC4 181325Z 08002KT 08/05 A2994 RMK A01 T00770049  RH  082%=      5-min Rain = 0
KMC4 181326Z 04002KT 08/05 A2994 RMK A01 T00790049  RH  082%=      5-min Rain = 0
KMC4 181327Z 02003KT 08/05 A2994 RMK A01 T00780047  RH  080%=      5-min Rain = 0
KMC4 181328Z 02002KT 08/05 A2995 RMK A01 T00760046  RH  081%=      5-min Rain = 0
KMC4 181329Z 01003KT 08/05 A2995 RMK A01 T00750045  RH  082%=      5-min Rain = 0
KMC4 181330Z 02002KT 07/05 A2995 RMK A01 T00730045  RH  083%=      5-min Rain = 0
KMC4 181331Z 02002KT 07/05 A2995 RMK A01 T00730047  RH  083%=      5-min Rain = 0
KMC4 181332Z 02001KT 08/05 A2995 RMK A01 T00750048  RH  083%=      5-min Rain = 0
KMC4 181333Z 02001KT 08/05 A2995 RMK A01 T00760048  RH  082%=      5-min Rain = 0
KMC4 181334Z 02001KT 08/05 A2995 RMK A01 T00760047  RH  082%=      5-min Rain = 0
KMC4 181335Z 01001KT 08/05 A2995 RMK A01 T00760047  RH  082%=      5-min Rain = 0
KMC4 181336Z 01002KT 08/05 A2995 RMK A01 T00750047  RH  082%=      5-min Rain = 0
KMC4 181337Z 03001KT 08/05 A2995 RMK A01 T00750047  RH  083%=      5-min Rain = 0
KMC4 181338Z 04001KT 08/05 A2995 RMK A01 T00750047  RH  083%=      5-min Rain = 0
KMC4 181339Z 08001KT 07/05 A2995 RMK A01 T00740046  RH  083%=      5-min Rain = 0
KMC4 181340Z 10000KT 07/05 A2995 RMK A01 T00740047  RH  083%=      5-min Rain = 0
KMC4 181341Z 00000KT 07/05 A2995 RMK A01 T00740046  RH  083%=      5-min Rain = 0
KMC4 181342Z 00000KT 07/05 A2995 RMK A01 T00740047  RH  083%=      5-min Rain = 0
KMC4 181343Z 00000KT 07/05 A2995 RMK A01 T00740046  RH  083%=      5-min Rain = 0
KMC4 181344Z 00000KT 07/05 A2995 RMK A01 T00730047  RH  083%=      5-min Rain = 0
KMC4 181345Z 00000KT 07/05 A2995 RMK A01 T00740047  RH  083%=      5-min Rain = 0
KMC4 181346Z 00000KT 08/05 A2995 RMK A01 T00750047  RH  083%=      5-min Rain = 0
KMC4 181347Z 00000KT 08/05 A2995 RMK A01 T00750047  RH  082%=      5-min Rain = 0
KMC4 181348Z 00000KT 08/05 A2995 RMK A01 T00750048  RH  083%=      5-min Rain = 0
KMC4 181349Z 00000KT 08/05 A2995 RMK A01 T00760049  RH  083%=      5-min Rain = 0
KMC4 181350Z 00000KT 08/05 A2995 RMK A01 T00770048  RH  082%=      5-min Rain = 0
KMC4 181351Z 00000KT 08/05 A2995 RMK A01 T00760046  RH  082%=      5-min Rain = 0
KMC4 181352Z 00000KT 07/05 A2995 RMK A01 T00740045  RH  082%=      5-min Rain = 0
KMC4 181353Z 23000KT 07/05 A2995 RMK A01 T00730045  RH  082%=      5-min Rain = 0
KMC4 181354Z 21001KT 07/05 A2995 RMK A01 T00720045  RH  083%=      5-min Rain = 0
KMC4 181355Z 19001KT 07/05 A2995 RMK A01 T00710046  RH  084%=      5-min Rain = 0
KMC4 181356Z 19001KT 07/05 A2995 RMK A01 T00710046  RH  084%=      5-min Rain = 0
KMC4 181357Z 18001KT 07/05 A2995 RMK A01 T00700045  RH  084%=      5-min Rain = 0
KMC4 181358Z 16002KT 07/05 A2995 RMK A01 T00700046  RH  084%=      5-min Rain = 0
KMC4 181359Z 16002KT 07/05 A2995 RMK A01 T00710046  RH  084%=      5-min Rain = 0
KMC4 181400Z 16002KT 07/05 A2995 RMK A01 T00700046  RH  084%=      5-min Rain = 0
KMC4 181401Z 16002KT 07/05 A2995 RMK A01 T00700045  RH  084%=      5-min Rain = 0
KMC4 181402Z 16003KT 07/05 A2995 RMK A01 T00700045  RH  084%=      5-min Rain = 0
KMC4 181403Z 18002KT 07/05 A2995 RMK A01 T00690045  RH  085%=      5-min Rain = 0
KMC4 181404Z 17002KT 07/05 A2995 RMK A01 T00690045  RH  085%=      5-min Rain = 0
KMC4 181405Z 15001KT 07/05 A2995 RMK A01 T00690045  RH  085%=      5-min Rain = 0
KMC4 181406Z 00000KT 07/05 A2995 RMK A01 T00680045  RH  085%=      5-min Rain = 0
KMC4 181407Z 20000KT 07/04 A2995 RMK A01 T00680044  RH  085%=      5-min Rain = 0
KMC4 181408Z 19001KT 07/04 A2995 RMK A01 T00680044  RH  085%=      5-min Rain = 0
KMC4 181409Z 19001KT 07/04 A2995 RMK A01 T00670044  RH  085%=      5-min Rain = 0
KMC4 181410Z 21001KT 07/05 A2996 RMK A01 T00680045  RH  085%=      5-min Rain = 0
KMC4 181411Z 20002KT 07/04 A2996 RMK A01 T00680044  RH  085%=      5-min Rain = 0
KMC4 181412Z 23001KT 07/04 A2996 RMK A01 T00680043  RH  084%=      5-min Rain = 0
KMC4 181413Z 22002KT 07/04 A2996 RMK A01 T00680043  RH  084%=      5-min Rain = 0
KMC4 181414Z 22002KT 07/04 A2996 RMK A01 T00670044  RH  085%=      5-min Rain = 0
KMC4 181415Z 22002KT 07/04 A2996 RMK A01 T00670044  RH  086%=      5-min Rain = 0
KMC4 181416Z 20001KT 07/04 A2996 RMK A01 T00670044  RH  085%=      5-min Rain = 0
KMC4 181417Z 22001KT 07/04 A2996 RMK A01 T00670044  RH  085%=      5-min Rain = 0
KMC4 181418Z 22002KT 07/05 A2996 RMK A01 T00670045  RH  086%=      5-min Rain = 0
KMC4 181419Z 21001KT 07/05 A2996 RMK A01 T00670045  RH  086%=      5-min Rain = 0
KMC4 181420Z 22001KT 07/05 A2996 RMK A01 T00690047  RH  086%=      5-min Rain = 0
KMC4 181421Z 23001KT 07/05 A2996 RMK A01 T00710048  RH  086%=      5-min Rain = 0
KMC4 181422Z 26001KT 07/05 A2996 RMK A01 T00720049  RH  085%=      5-min Rain = 0
KMC4 181423Z 00000KT 07/05 A2996 RMK A01 T00740051  RH  085%=      5-min Rain = 0
KMC4 181424Z 00000KT 08/05 A2996 RMK A01 T00780053  RH  084%=      5-min Rain = 0
KMC4 181425Z 34000KT 08/05 A2996 RMK A01 T00810053  RH  083%=      5-min Rain = 0
KMC4 181426Z 33002KT 08/05 A2996 RMK A01 T00840054  RH  082%=      5-min Rain = 0
KMC4 181427Z 34002KT 09/05 A2996 RMK A01 T00860054  RH  080%=      5-min Rain = 0
KMC4 181428Z 35003KT 09/05 A2996 RMK A01 T00890054  RH  079%=      5-min Rain = 0
KMC4 181429Z 35003KT 09/06 A2996 RMK A01 T00920056  RH  078%=      5-min Rain = 0
KMC4 181430Z 35003KT 09/06 A2996 RMK A01 T00940055  RH  077%=      5-min Rain = 0
KMC4 181431Z 35004KT 10/06 A2996 RMK A01 T00960055  RH  076%=      5-min Rain = 0
KMC4 181432Z 35003KT 10/06 A2996 RMK A01 T00970056  RH  076%=      5-min Rain = 0
KMC4 181433Z 35004KT 10/06 A2996 RMK A01 T00980056  RH  075%=      5-min Rain = 0
KMC4 181434Z 35003KT 10/06 A2996 RMK A01 T00990056  RH  075%=      5-min Rain = 0
KMC4 181435Z 34002KT 10/06 A2996 RMK A01 T01000057  RH  075%=      5-min Rain = 0
KMC4 181436Z 30001KT 10/06 A2996 RMK A01 T01020058  RH  074%=      5-min Rain = 0
KMC4 181437Z 00000KT 10/06 A2996 RMK A01 T01030060  RH  074%=      5-min Rain = 0
KMC4 181438Z 20001KT 10/06 A2996 RMK A01 T01040060  RH  074%=      5-min Rain = 0
KMC4 181439Z 21001KT 11/06 A2996 RMK A01 T01050060  RH  074%=      5-min Rain = 0
KMC4 181440Z 21001KT 11/06 A2996 RMK A01 T01070062  RH  073%=      5-min Rain = 0
KMC4 181441Z 19002KT 11/07 A2996 RMK A01 T01110065  RH  074%=      5-min Rain = 0
KMC4 181442Z 17001KT 12/07 A2996 RMK A01 T01150066  RH  072%=      5-min Rain = 0
KMC4 181443Z 18001KT 12/07 A2996 RMK A01 T01190070  RH  072%=      5-min Rain = 0
KMC4 181444Z 18001KT 12/07 A2996 RMK A01 T01230071  RH  071%=      5-min Rain = 0
KMC4 181445Z 18001KT 13/07 A2996 RMK A01 T01260073  RH  070%=      5-min Rain = 0
KMC4 181446Z 19001KT 13/07 A2996 RMK A01 T01290073  RH  069%=      5-min Rain = 0
KMC4 181447Z 19001KT 13/07 A2995 RMK A01 T01290070  RH  068%=      5-min Rain = 0
KMC4 181448Z 15001KT 13/07 A2995 RMK A01 T01280069  RH  068%=      5-min Rain = 0
KMC4 181449Z 11001KT 13/07 A2995 RMK A01 T01270069  RH  068%=      5-min Rain = 0
KMC4 181450Z 12001KT 13/07 A2995 RMK A01 T01260070  RH  069%=      5-min Rain = 0
KMC4 181451Z 08002KT 13/07 A2996 RMK A01 T01250070  RH  069%=      5-min Rain = 0
KMC4 181452Z 05002KT 13/07 A2996 RMK A01 T01250072  RH  070%=      5-min Rain = 0
KMC4 181453Z 05003KT 12/07 A2996 RMK A01 T01240067  RH  068%=      5-min Rain = 0
KMC4 181454Z 05004KT 13/07 A2996 RMK A01 T01260069  RH  068%=      5-min Rain = 0
KMC4 181455Z 04005KT 13/07 A2996 RMK A01 T01270069  RH  068%=      5-min Rain = 0
KMC4 181456Z 04005KT 13/07 A2996 RMK A01 T01270067  RH  067%=      5-min Rain = 0
KMC4 181457Z 04005KT 13/07 A2996 RMK A01 T01270068  RH  067%=      5-min Rain = 0
KMC4 181458Z 04005KT 13/07 A2996 RMK A01 T01250066  RH  067%=      5-min Rain = 0
KMC4 181459Z 04005KT 13/07 A2996 RMK A01 T01250067  RH  068%=      5-min Rain = 0
KMC4 181500Z 04004KT 13/07 A2996 RMK A01 T01250066  RH  067%=      5-min Rain = 0
KMC4 181501Z 04004KT 13/07 A2996 RMK A01 T01250066  RH  067%=      5-min Rain = 0
KMC4 181502Z 04004KT 13/07 A2996 RMK A01 T01270066  RH  066%=      5-min Rain = 0
KMC4 181503Z 06004KT 13/07 A2996 RMK A01 T01280065  RH  066%=      5-min Rain = 0
KMC4 181504Z 07003KT 13/07 A2996 RMK A01 T01290066  RH  065%=      5-min Rain = 0
KMC4 181505Z 07003KT 13/07 A2995 RMK A01 T01290065  RH  065%=      5-min Rain = 0
KMC4 181506Z 07004KT 13/07 A2995 RMK A01 T01300065  RH  065%=      5-min Rain = 0
KMC4 181507Z 07004KT 13/07 A2995 RMK A01 T01310065  RH  064%=      5-min Rain = 0
KMC4 181508Z 07004KT 13/07 A2995 RMK A01 T01330065  RH  063%=      5-min Rain = 0
KMC4 181509Z 07004KT 14/07 A2995 RMK A01 T01350066  RH  063%=      5-min Rain = 0
KMC4 181510Z 07004KT 14/07 A2995 RMK A01 T01370065  RH  062%=      5-min Rain = 0
KMC4 181511Z 08004KT 14/07 A2995 RMK A01 T01380067  RH  062%=      5-min Rain = 0
KMC4 181512Z 08005KT 14/07 A2995 RMK A01 T01390065  RH  061%=      5-min Rain = 0
KMC4 181513Z 08005KT 14/07 A2995 RMK A01 T01400066  RH  061%=      5-min Rain = 0
KMC4 181514Z 08003KT 14/07 A2995 RMK A01 T01400066  RH  061%=      5-min Rain = 0
KMC4 181515Z 10003KT 14/07 A2995 RMK A01 T01410067  RH  061%=      5-min Rain = 0
KMC4 181516Z 16002KT 14/06 A2995 RMK A01 T01430062  RH  058%=      5-min Rain = 0
KMC4 181517Z 14001KT 15/06 A2994 RMK A01 T01460060  RH  056%=      5-min Rain = 0
KMC4 181518Z 08002KT 15/06 A2994 RMK A01 T01470060  RH  056%=      5-min Rain = 0
KMC4 181519Z 11002KT 15/06 A2994 RMK A01 T01480061  RH  056%=      5-min Rain = 0
KMC4 181520Z 10001KT 15/06 A2994 RMK A01 T01490059  RH  055%=      5-min Rain = 0
KMC4 181521Z 11001KT 15/06 A2994 RMK A01 T01500059  RH  055%=      5-min Rain = 0
KMC4 181522Z 13001KT 15/06 A2994 RMK A01 T01510060  RH  055%=      5-min Rain = 0
KMC4 181523Z 20001KT 15/06 A2994 RMK A01 T01520058  RH  053%=      5-min Rain = 0
KMC4 181524Z 20002KT 15/06 A2994 RMK A01 T01530055  RH  052%=      5-min Rain = 0
KMC4 181525Z 13001KT 16/06 A2994 RMK A01 T01550057  RH  052%=      5-min Rain = 0
KMC4 181526Z 03000KT 16/06 A2995 RMK A01 T01550059  RH  053%=      5-min Rain = 0
KMC4 181527Z 21000KT 16/06 A2995 RMK A01 T01550059  RH  053%=      5-min Rain = 0
KMC4 181528Z 20000KT 16/06 A2995 RMK A01 T01550056  RH  052%=      5-min Rain = 0
KMC4 181529Z 20000KT 16/06 A2995 RMK A01 T01550057  RH  052%=      5-min Rain = 0
KMC4 181530Z 23000KT 16/06 A2995 RMK A01 T01550058  RH  052%=      5-min Rain = 0
KMC4 181531Z 24000KT 16/06 A2995 RMK A01 T01560057  RH  052%=      5-min Rain = 0
KMC4 181532Z 26001KT 16/06 A2995 RMK A01 T01550057  RH  052%=      5-min Rain = 0
KMC4 181533Z 25001KT 16/06 A2995 RMK A01 T01550057  RH  052%=      5-min Rain = 0
KMC4 181534Z 26001KT 16/06 A2994 RMK A01 T01560059  RH  052%=      5-min Rain = 0
KMC4 181535Z 21002KT 16/06 A2995 RMK A01 T01560058  RH  052%=      5-min Rain = 0
KMC4 181536Z 27001KT 16/06 A2995 RMK A01 T01570059  RH  052%=      5-min Rain = 0
KMC4 181537Z 30002KT 16/06 A2995 RMK A01 T01580061  RH  053%=      5-min Rain = 0
KMC4 181538Z 31003KT 16/07 A2995 RMK A01 T01580065  RH  054%=      5-min Rain = 0
KMC4 181539Z 31003KT 16/06 A2995 RMK A01 T01590064  RH  053%=      5-min Rain = 0
KMC4 181540Z 31003KT 16/07 A2995 RMK A01 T01600065  RH  053%=      5-min Rain = 0
KMC4 181541Z 32003KT 16/06 A2995 RMK A01 T01610063  RH  052%=      5-min Rain = 0
KMC4 181542Z 32004KT 16/06 A2996 RMK A01 T01620058  RH  050%=      5-min Rain = 0
KMC4 181543Z 32004KT 16/06 A2996 RMK A01 T01630060  RH  051%=      5-min Rain = 0
KMC4 181544Z 31004KT 16/06 A2996 RMK A01 T01640062  RH  051%=      5-min Rain = 0
KMC4 181545Z 30004KT 17/06 A2996 RMK A01 T01650063  RH  051%=      5-min Rain = 0
KMC4 181546Z 29005KT 17/06 A2996 RMK A01 T01670062  RH  050%=      5-min Rain = 0
KMC4 181547Z 28004KT 17/06 A2996 RMK A01 T01680057  RH  048%=      5-min Rain = 0
KMC4 181548Z 29004KT 17/06 A2996 RMK A01 T01680057  RH  048%=      5-min Rain = 0
KMC4 181549Z 29005KT 17/06 A2996 RMK A01 T01690060  RH  049%=      5-min Rain = 0
KMC4 181550Z 29007KT 17/06 A2996 RMK A01 T01700059  RH  048%=      5-min Rain = 0
KMC4 181551Z 29006KT 17/06 A2996 RMK A01 T01710058  RH  047%=      5-min Rain = 0
KMC4 181552Z 29007KT 17/06 A2996 RMK A01 T01730060  RH  047%=      5-min Rain = 0
KMC4 181553Z 28009KT 17/06 A2996 RMK A01 T01730059  RH  047%=      5-min Rain = 0
KMC4 181554Z 28009KT 17/06 A2996 RMK A01 T01730057  RH  046%=      5-min Rain = 0
KMC4 181555Z 28007KT 17/06 A2996 RMK A01 T01730058  RH  047%=      5-min Rain = 0
KMC4 181556Z 28008KT 17/06 A2996 RMK A01 T01730059  RH  047%=      5-min Rain = 0
KMC4 181557Z 28008KT 17/06 A2996 RMK A01 T01730058  RH  047%=      5-min Rain = 0
KMC4 181558Z 27009KT 17/06 A2996 RMK A01 T01730059  RH  047%=      5-min Rain = 0
KMC4 181559Z 28008KT 17/06 A2996 RMK A01 T01730060  RH  047%=      5-min Rain = 0
KMC4 181600Z 27010KT 17/06 A2996 RMK A01 T01730057  RH  046%=      5-min Rain = 0
KMC4 181601Z 26009KT 17/06 A2996 RMK A01 T01730056  RH  046%=      5-min Rain = 0
KMC4 181602Z 26009KT 17/06 A2996 RMK A01 T01730055  RH  046%=      5-min Rain = 0
KMC4 181603Z 26010KT 17/06 A2996 RMK A01 T01730055  RH  046%=      5-min Rain = 0
KMC4 181604Z 26009KT 17/05 A2996 RMK A01 T01730054  RH  046%=      5-min Rain = 0
KMC4 181605Z 26007KT 17/05 A2996 RMK A01 T01740054  RH  045%=      5-min Rain = 0
KMC4 181606Z 26008KT 18/06 A2996 RMK A01 T01750056  RH  046%=      5-min Rain = 0
KMC4 181607Z 27009KT 18/06 A2996 RMK A01 T01760055  RH  045%=      5-min Rain = 0
KMC4 181608Z 26008KT 18/05 A2996 RMK A01 T01760053  RH  044%=      5-min Rain = 0
KMC4 181609Z 26009KT 18/06 A2996 RMK A01 T01770055  RH  045%=      5-min Rain = 0
KMC4 181610Z 27008KT 18/06 A2996 RMK A01 T01770056  RH  045%=      5-min Rain = 0
KMC4 181611Z 27009KT 18/06 A2996 RMK A01 T01780055  RH  044%=      5-min Rain = 0
KMC4 181612Z 27010KT 18/05 A2996 RMK A01 T01780054  RH  044%=      5-min Rain = 0
KMC4 181613Z 27010KT 18/05 A2996 RMK A01 T01790053  RH  043%=      5-min Rain = 0
KMC4 181614Z 27010KT 18/05 A2996 RMK A01 T01790053  RH  043%=      5-min Rain = 0
KMC4 181615Z 26009KT 18/06 A2996 RMK A01 T01800057  RH  044%=      5-min Rain = 0
KMC4 181616Z 27010KT 18/06 A2996 RMK A01 T01810055  RH  043%=      5-min Rain = 0
KMC4 181617Z 26010KT 18/05 A2996 RMK A01 T01810054  RH  043%=      5-min Rain = 0
KMC4 181618Z 27010KT 18/05 A2996 RMK A01 T01810053  RH  043%=      5-min Rain = 0
KMC4 181619Z 26010KT 18/05 A2996 RMK A01 T01810054  RH  043%=      5-min Rain = 0
KMC4 181620Z 26010KT 18/06 A2996 RMK A01 T01820056  RH  043%=      5-min Rain = 0
KMC4 181621Z 27009KT 18/06 A2996 RMK A01 T01830057  RH  043%=      5-min Rain = 0
KMC4 181622Z 26008KT 18/06 A2996 RMK A01 T01830057  RH  044%=      5-min Rain = 0
KMC4 181623Z 26009KT 18/06 A2996 RMK A01 T01830055  RH  043%=      5-min Rain = 0
KMC4 181624Z 25010KT 18/06 A2996 RMK A01 T01830055  RH  043%=      5-min Rain = 0
KMC4 181625Z 26010KT 18/06 A2996 RMK A01 T01830055  RH  043%=      5-min Rain = 0
KMC4 181626Z 26009KT 18/06 A2996 RMK A01 T01840055  RH  043%=      5-min Rain = 0
KMC4 181627Z 27009KT 19/06 A2996 RMK A01 T01850056  RH  043%=      5-min Rain = 0
KMC4 181628Z 26010KT 19/06 A2996 RMK A01 T01850057  RH  043%=      5-min Rain = 0
KMC4 181629Z 26009KT 19/06 A2996 RMK A01 T01850057  RH  043%=      5-min Rain = 0
KMC4 181630Z 26009KT 19/06 A2996 RMK A01 T01860058  RH  043%=      5-min Rain = 0
KMC4 181631Z 25009KT 19/06 A2996 RMK A01 T01870057  RH  042%=      5-min Rain = 0
KMC4 181632Z 25009KT 19/06 A2995 RMK A01 T01880056  RH  042%=      5-min Rain = 0
KMC4 181633Z 26009KT 19/06 A2995 RMK A01 T01890057  RH  042%=      5-min Rain = 0
KMC4 181634Z 25010KT 19/06 A2995 RMK A01 T01910058  RH  042%=      5-min Rain = 0
KMC4 181635Z 25010KT 19/06 A2995 RMK A01 T01910056  RH  041%=      5-min Rain = 0
KMC4 181636Z 26010KT 19/06 A2995 RMK A01 T01920058  RH  041%=      5-min Rain = 0
KMC4 181637Z 25010KT 19/06 A2995 RMK A01 T01930055  RH  040%=      5-min Rain = 0
KMC4 181638Z 26009KT 19/06 A2995 RMK A01 T01940056  RH  040%=      5-min Rain = 0
KMC4 181639Z 25009KT 19/06 A2995 RMK A01 T01940057  RH  041%=      5-min Rain = 0
KMC4 181640Z 26010KT 20/06 A2995 RMK A01 T01950057  RH  040%=      5-min Rain = 0
KMC4 181641Z 26011KT 20/06 A2995 RMK A01 T01960056  RH  040%=      5-min Rain = 0
KMC4 181642Z 26010KT 20/06 A2995 RMK A01 T01960055  RH  040%=      5-min Rain = 0
KMC4 181643Z 25010KT 20/06 A2995 RMK A01 T01960055  RH  040%=      5-min Rain = 0
KMC4 181644Z 26009KT 20/06 A2995 RMK A01 T01970056  RH  040%=      5-min Rain = 0
KMC4 181645Z 26012KT 20/06 A2995 RMK A01 T01990055  RH  039%=      5-min Rain = 0
KMC4 181646Z 24013KT 20/05 A2995 RMK A01 T01990052  RH  038%=      5-min Rain = 0
KMC4 181647Z 25010KT 20/05 A2995 RMK A01 T02000054  RH  038%=      5-min Rain = 0
KMC4 181648Z 25010KT 20/05 A2995 RMK A01 T02010054  RH  038%=      5-min Rain = 0
KMC4 181649Z 25013KT 20/05 A2995 RMK A01 T02030052  RH  037%=      5-min Rain = 0
KMC4 181650Z 25012KT 20/05 A2995 RMK A01 T02020051  RH  037%=      5-min Rain = 0
KMC4 181651Z 25013KT 20/05 A2995 RMK A01 T02020052  RH  037%=      5-min Rain = 0
KMC4 181652Z 24013KT 20/05 A2995 RMK A01 T02030049  RH  036%=      5-min Rain = 0
KMC4 181653Z 24013KT 20/05 A2995 RMK A01 T02030049  RH  036%=      5-min Rain = 0
KMC4 181654Z 25013KT 20/05 A2995 RMK A01 T02030051  RH  037%=      5-min Rain = 0
KMC4 181655Z 25012KT 20/05 A2995 RMK A01 T02030049  RH  036%=      5-min Rain = 0
KMC4 181656Z 25012KT 20/05 A2995 RMK A01 T02030051  RH  037%=      5-min Rain = 0
KMC4 181657Z 25013KT 21/05 A2995 RMK A01 T02050051  RH  036%=      5-min Rain = 0
KMC4 181658Z 25011KT 21/05 A2995 RMK A01 T02050051  RH  036%=      5-min Rain = 0
KMC4 181659Z 25014KT 21/05 A2995 RMK A01 T02070053  RH  036%=      5-min Rain = 0
KMC4 181700Z 25013KT 21/05 A2995 RMK A01 T02080050  RH  036%=      5-min Rain = 0
KMC4 181701Z 25013KT 21/05 A2995 RMK A01 T02090051  RH  036%=      5-min Rain = 0
KMC4 181702Z 25014KT 21/05 A2995 RMK A01 T02100051  RH  036%=      5-min Rain = 0
KMC4 181703Z 24013KT 21/05 A2995 RMK A01 T02100049  RH  035%=      5-min Rain = 0
KMC4 181704Z 24013KT 21/05 A2994 RMK A01 T02100048  RH  035%=      5-min Rain = 0
KMC4 181705Z 25012KT 21/05 A2995 RMK A01 T02110049  RH  035%=      5-min Rain = 0
KMC4 181706Z 24012KT 21/05 A2995 RMK A01 T02120050  RH  035%=      5-min Rain = 0
KMC4 181707Z 24012KT 21/05 A2994 RMK A01 T02130051  RH  035%=      5-min Rain = 0
KMC4 181708Z 23013KT 21/05 A2994 RMK A01 T02140048  RH  034%=      5-min Rain = 0
KMC4 181709Z 23013KT 21/05 A2994 RMK A01 T02140046  RH  033%=      5-min Rain = 0
KMC4 181710Z 25012KT 22/05 A2994 RMK A01 T02150048  RH  034%=      5-min Rain = 0
KMC4 181711Z 24012KT 22/05 A2994 RMK A01 T02150049  RH  034%=      5-min Rain = 0
KMC4 181712Z 25014KT 22/04 A2993 RMK A01 T02160043  RH  032%=      5-min Rain = 0
KMC4 181713Z 24013KT 22/04 A2993 RMK A01 T02180035  RH  030%=      5-min Rain = 0
KMC4 181714Z 25014KT 22/04 A2994 RMK A01 T02200038  RH  030%=      5-min Rain = 0
KMC4 181715Z 24016KT 22/04 A2993 RMK A01 T02220037  RH  030%=      5-min Rain = 0
KMC4 181716Z 24016KT 22/03 A2993 RMK A01 T02230033  RH  029%=      5-min Rain = 0
KMC4 181717Z 24017KT 22/04 A2993 RMK A01 T02230035  RH  029%=      5-min Rain = 0
KMC4 181718Z 25016KT 22/03 A2994 RMK A01 T02220031  RH  029%=      5-min Rain = 0
KMC4 181719Z 25015G20KT 22/04 A2994 RMK A01 T02220038  RH  030%=      5-min Rain = 0
KMC4 181720Z 25016KT 22/04 A2994 RMK A01 T02230037  RH  030%=      5-min Rain = 0
KMC4 181721Z 25016G21KT 22/04 A2994 RMK A01 T02230036  RH  029%=      5-min Rain = 0
KMC4 181722Z 23016KT 22/04 A2994 RMK A01 T02230036  RH  029%=      5-min Rain = 0
KMC4 181723Z 24013KT 22/04 A2993 RMK A01 T02230038  RH  030%=      5-min Rain = 0
KMC4 181724Z 24015KT 22/04 A2993 RMK A01 T02240037  RH  030%=      5-min Rain = 0
KMC4 181725Z 25014KT 23/04 A2993 RMK A01 T02250037  RH  029%=      5-min Rain = 0
KMC4 181726Z 25014KT 23/04 A2993 RMK A01 T02260036  RH  029%=      5-min Rain = 0
KMC4 181727Z 25013KT 23/04 A2993 RMK A01 T02270035  RH  029%=      5-min Rain = 0
KMC4 181728Z 26013G18KT 23/04 A2993 RMK A01 T02270035  RH  029%=      5-min Rain = 0
KMC4 181729Z 26014KT 23/04 A2993 RMK A01 T02280035  RH  028%=      5-min Rain = 0
KMC4 181730Z 26015KT 23/04 A2993 RMK A01 T02280037  RH  029%=      5-min Rain = 0
KMC4 181731Z 26015KT 23/03 A2993 RMK A01 T02290030  RH  027%=      5-min Rain = 0
KMC4 181732Z 24014KT 23/03 A2993 RMK A01 T02270026  RH  027%=      5-min Rain = 0
KMC4 181733Z 24015KT 23/03 A2992 RMK A01 T02270026  RH  027%=      5-min Rain = 0
KMC4 181734Z 25016KT 23/03 A2993 RMK A01 T02270027  RH  027%=      5-min Rain = 0
KMC4 181735Z 25015KT 23/03 A2993 RMK A01 T02270030  RH  027%=      5-min Rain = 0
KMC4 181736Z 26016KT 23/03 A2993 RMK A01 T02270032  RH  028%=      5-min Rain = 0
KMC4 181737Z 26017G22KT 23/03 A2993 RMK A01 T02280030  RH  027%=      5-min Rain = 0
KMC4 181738Z 26017KT 23/03 A2992 RMK A01 T02290029  RH  027%=      5-min Rain = 0
KMC4 181739Z 26016KT 23/03 A2992 RMK A01 T02290028  RH  027%=      5-min Rain = 0
KMC4 181740Z 25017KT 23/03 A2992 RMK A01 T02290029  RH  027%=      5-min Rain = 0
KMC4 181741Z 25015KT 23/03 A2992 RMK A01 T02290030  RH  027%=      5-min Rain = 0
KMC4 181742Z 27014KT 23/03 A2992 RMK A01 T02290029  RH  027%=      5-min Rain = 0
KMC4 181743Z 26015KT 23/03 A2992 RMK A01 T02300030  RH  027%=      5-min Rain = 0
KMC4 181744Z 26015KT 23/03 A2992 RMK A01 T02320032  RH  027%=      5-min Rain = 0
KMC4 181745Z 26018KT 23/03 A2992 RMK A01 T02330029  RH  026%=      5-min Rain = 0
KMC4 181746Z 26017KT 23/03 A2992 RMK A01 T02320030  RH  027%=      5-min Rain = 0
KMC4 181747Z 26018KT 23/03 A2992 RMK A01 T02310031  RH  027%=      5-min Rain = 0
KMC4 181748Z 26016G21KT 23/03 A2992 RMK A01 T02310027  RH  026%=      5-min Rain = 0
KMC4 181749Z 26015KT 23/03 A2992 RMK A01 T02300027  RH  026%=      5-min Rain = 0
KMC4 181750Z 25013KT 23/03 A2992 RMK A01 T02300031  RH  027%=      5-min Rain = 0
KMC4 181751Z 25017KT 23/03 A2992 RMK A01 T02310030  RH  027%=      5-min Rain = 0
KMC4 181752Z 24017KT 23/03 A2992 RMK A01 T02310032  RH  027%=      5-min Rain = 0
KMC4 181753Z 24018KT 23/03 A2992 RMK A01 T02320028  RH  026%=      5-min Rain = 0
KMC4 181754Z 25018KT 23/03 A2992 RMK A01 T02310030  RH  027%=      5-min Rain = 0
KMC4 181755Z 24016KT 23/03 A2992 RMK A01 T02310031  RH  027%=      5-min Rain = 0
KMC4 181756Z 25016KT 23/03 A2992 RMK A01 T02310030  RH  027%=      5-min Rain = 0
KMC4 181757Z 25015KT 23/03 A2992 RMK A01 T02310031  RH  027%=      5-min Rain = 0
KMC4 181758Z 25016KT 23/03 A2992 RMK A01 T02320030  RH  027%=      5-min Rain = 0
KMC4 181759Z 25017KT 23/03 A2992 RMK A01 T02330032  RH  027%=      5-min Rain = 0
KMC4 181800Z 24019KT 23/03 A2992 RMK A01 T02330027  RH  026%=      5-min Rain = 0
KMC4 181801Z 25014KT 23/03 A2992 RMK A01 T02330031  RH  027%=      5-min Rain = 0
KMC4 181802Z 25018G24KT 24/03 A2992 RMK A01 T02350032  RH  027%=      5-min Rain = 0
KMC4 181803Z 25017KT 23/03 A2991 RMK A01 T02340029  RH  026%=      5-min Rain = 0
KMC4 181804Z 26017KT 23/03 A2991 RMK A01 T02330030  RH  026%=      5-min Rain = 0
KMC4 181805Z 26015KT 23/03 A2991 RMK A01 T02330031  RH  027%=      5-min Rain = 0
KMC4 181806Z 26017KT 23/03 A2991 RMK A01 T02330030  RH  026%=      5-min Rain = 0
KMC4 181807Z 25016KT 23/03 A2991 RMK A01 T02330029  RH  026%=      5-min Rain = 0
KMC4 181808Z 26015KT 23/03 A2991 RMK A01 T02320030  RH  027%=      5-min Rain = 0
KMC4 181809Z 25015KT 23/03 A2991 RMK A01 T02320030  RH  027%=      5-min Rain = 0
KMC4 181810Z 26013KT 23/03 A2991 RMK A01 T02330028  RH  026%=      5-min Rain = 0
KMC4 181811Z 25015KT 23/03 A2991 RMK A01 T02340027  RH  026%=      5-min Rain = 0
KMC4 181812Z 25014KT 23/02 A299 RMK A01 T02340022  RH  025%=      5-min Rain = 0
KMC4 181813Z 25014KT 23/02 A299 RMK A01 T02330023  RH  025%=      5-min Rain = 0
KMC4 181814Z 26015KT 24/03 A299 RMK A01 T02350025  RH  025%=      5-min Rain = 0
KMC4 181815Z 27017KT 24/02 A299 RMK A01 T02360022  RH  025%=      5-min Rain = 0
KMC4 181816Z 26014KT 24/02 A299 RMK A01 T02370024  RH  025%=      5-min Rain = 0
KMC4 181817Z 25016KT 24/03 A299 RMK A01 T02380026  RH  025%=      5-min Rain = 0
KMC4 181818Z 25018KT 24/02 A299 RMK A01 T02400024  RH  024%=      5-min Rain = 0
KMC4 181819Z 25016KT 24/02 A299 RMK A01 T02390021  RH  024%=      5-min Rain = 0
KMC4 181820Z 25018KT 24/02 A299 RMK A01 T02380022  RH  024%=      5-min Rain = 0
KMC4 181821Z 26020KT 24/02 A299 RMK A01 T02380021  RH  024%=      5-min Rain = 0
KMC4 181822Z 25014KT 24/02 A299 RMK A01 T02360019  RH  024%=      5-min Rain = 0
KMC4 181823Z 25018KT 24/02 A2989 RMK A01 T02370024  RH  025%=      5-min Rain = 0
KMC4 181824Z 26017KT 24/02 A2989 RMK A01 T02370018  RH  024%=      5-min Rain = 0
KMC4 181825Z 26016KT 24/02 A2989 RMK A01 T02360020  RH  024%=      5-min Rain = 0
KMC4 181826Z 25017KT 24/02 A2989 RMK A01 T02350020  RH  024%=      5-min Rain = 0
KMC4 181827Z 26019KT 24/02 A2989 RMK A01 T02370022  RH  024%=      5-min Rain = 0
KMC4 181828Z 28018G23KT 24/02 A2989 RMK A01 T02390023  RH  024%=      5-min Rain = 0
KMC4 181829Z 28020KT 24/02 A2989 RMK A01 T02400018  RH  023%=      5-min Rain = 0
KMC4 181830Z 28021G27KT 24/02 A2989 RMK A01 T02390018  RH  023%=      5-min Rain = 0
KMC4 181831Z 27022KT 24/02 A2988 RMK A01 T02390018  RH  023%=      5-min Rain = 0
KMC4 181832Z 27020KT 24/02 A2988 RMK A01 T02380018  RH  023%=      5-min Rain = 0
KMC4 181833Z 28022G28KT 24/02 A2988 RMK A01 T02380018  RH  024%=      5-min Rain = 0
KMC4 181834Z 27023G28KT 24/02 A2988 RMK A01 T02380018  RH  024%=      5-min Rain = 0
KMC4 181835Z 27024KT 24/02 A2988 RMK A01 T02380016  RH  023%=      5-min Rain = 0
KMC4 181836Z 27020KT 24/02 A2988 RMK A01 T02380018  RH  024%=      5-min Rain = 0
KMC4 181837Z 27019KT 24/02 A2988 RMK A01 T02410021  RH  024%=      5-min Rain = 0
KMC4 181838Z 26022G29KT 24/02 A2988 RMK A01 T02430020  RH  023%=      5-min Rain = 0
KMC4 181839Z 27021KT 24/02 A2988 RMK A01 T02410018  RH  023%=      5-min Rain = 0
KMC4 181840Z 28023G28KT 24/02 A2988 RMK A01 T02370016  RH  023%=      5-min Rain = 0
KMC4 181841Z 28022KT 24/02 A2987 RMK A01 T02350017  RH  024%=      5-min Rain = 0
KMC4 181842Z 28021KT 24/02 A2987 RMK A01 T02350016  RH  024%=      5-min Rain = 0
KMC4 181843Z 27020KT 23/02 A2987 RMK A01 T02330018  RH  024%=      5-min Rain = 0
KMC4 181844Z 27020KT 23/02 A2987 RMK A01 T02330018  RH  024%=      5-min Rain = 0
KMC4 181845Z 28019KT 23/02 A2987 RMK A01 T02320018  RH  024%=      5-min Rain = 0
KMC4 181846Z 27019KT 23/02 A2987 RMK A01 T02310019  RH  025%=      5-min Rain = 0
KMC4 181847Z 27020G26KT 23/02 A2987 RMK A01 T02310020  RH  025%=      5-min Rain = 0
KMC4 181848Z 28020KT 23/02 A2987 RMK A01 T02300018  RH  025%=      5-min Rain = 0
KMC4 181849Z 28022G27KT 23/02 A2987 RMK A01 T02300017  RH  025%=      5-min Rain = 0
KMC4 181850Z 28021KT 23/02 A2986 RMK A01 T02300017  RH  025%=      5-min Rain = 0
KMC4 181851Z 27019KT 23/02 A2986 RMK A01 T02300019  RH  025%=      5-min Rain = 0
KMC4 181852Z 27019KT 23/02 A2986 RMK A01 T02300017  RH  025%=      5-min Rain = 0
KMC4 181853Z 27018KT 23/02 A2986 RMK A01 T02310018  RH  025%=      5-min Rain = 0
KMC4 181854Z 26020KT 23/02 A2986 RMK A01 T02330017  RH  024%=      5-min Rain = 0
KMC4 181855Z 26017KT 24/02 A2986 RMK A01 T02360020  RH  024%=      5-min Rain = 0
KMC4 181856Z 27018KT 24/02 A2986 RMK A01 T02390022  RH  024%=      5-min Rain = 0
KMC4 181857Z 27018KT 24/02 A2986 RMK A01 T02400022  RH  024%=      5-min Rain = 0
KMC4 181858Z 27018KT 24/02 A2986 RMK A01 T02380021  RH  024%=      5-min Rain = 0
KMC4 181859Z 28018KT 24/02 A2986 RMK A01 T02370023  RH  025%=      5-min Rain = 0
KMC4 181900Z 28019KT 24/02 A2986 RMK A01 T02360021  RH  024%=      5-min Rain = 0
KMC4 181901Z 26020KT 23/02 A2986 RMK A01 T02340019  RH  024%=      5-min Rain = 0
KMC4 181902Z 27020KT 23/02 A2986 RMK A01 T02330018  RH  024%=      5-min Rain = 0
KMC4 181903Z 27021KT 23/02 A2985 RMK A01 T02330017  RH  024%=      5-min Rain = 0
KMC4 181904Z 26017KT 23/02 A2985 RMK A01 T02330018  RH  024%=      5-min Rain = 0
KMC4 181905Z 27016G21KT 23/02 A2985 RMK A01 T02340021  RH  025%=      5-min Rain = 0
KMC4 181906Z 27016KT 24/02 A2985 RMK A01 T02350022  RH  025%=      5-min Rain = 0
KMC4 181907Z 28017KT 24/02 A2985 RMK A01 T02360022  RH  025%=      5-min Rain = 0
KMC4 181908Z 28019KT 24/02 A2985 RMK A01 T02360023  RH  025%=      5-min Rain = 0
KMC4 181909Z 27016KT 24/02 A2985 RMK A01 T02360021  RH  024%=      5-min Rain = 0
KMC4 181910Z 28016KT 24/03 A2985 RMK A01 T02360025  RH  025%=      5-min Rain = 0
KMC4 181911Z 27017KT 24/02 A2985 RMK A01 T02370024  RH  025%=      5-min Rain = 0
KMC4 181912Z 27019KT 24/02 A2985 RMK A01 T02380024  RH  025%=      5-min Rain = 0
KMC4 181913Z 26019KT 24/02 A2984 RMK A01 T02380022  RH  024%=      5-min Rain = 0
KMC4 181914Z 27018KT 24/02 A2985 RMK A01 T02380022  RH  024%=      5-min Rain = 0
KMC4 181915Z 27017KT 24/02 A2985 RMK A01 T02390024  RH  025%=      5-min Rain = 0
KMC4 181916Z 27019KT 24/03 A2985 RMK A01 T02410025  RH  024%=      5-min Rain = 0
KMC4 181917Z 27020KT 24/02 A2984 RMK A01 T02400023  RH  024%=      5-min Rain = 0
KMC4 181918Z 27017KT 24/02 A2984 RMK A01 T02390024  RH  025%=      5-min Rain = 0
KMC4 181919Z 26016KT 24/03 A2984 RMK A01 T02400028  RH  025%=      5-min Rain = 0
KMC4 181920Z 26016KT 24/03 A2984 RMK A01 T02410026  RH  025%=      5-min Rain = 0
KMC4 181921Z 26012KT 24/03 A2984 RMK A01 T02430026  RH  024%=      5-min Rain = 0
KMC4 181922Z 26014KT 25/03 A2984 RMK A01 T02450028  RH  024%=      5-min Rain = 0
KMC4 181923Z 27017G22KT 25/03 A2984 RMK A01 T02460028  RH  024%=      5-min Rain = 0
KMC4 181924Z 28021KT 24/03 A2983 RMK A01 T02430025  RH  024%=      5-min Rain = 0
KMC4 181925Z 28021KT 24/02 A2983 RMK A01 T02400023  RH  024%=      5-min Rain = 0
KMC4 181926Z 28016G21KT 24/02 A2984 RMK A01 T02370023  RH  025%=      5-min Rain = 0
KMC4 181927Z 27017KT 24/03 A2984 RMK A01 T02370026  RH  025%=      5-min Rain = 0
KMC4 181928Z 27022KT 24/03 A2983 RMK A01 T02380026  RH  025%=      5-min Rain = 0
KMC4 181929Z 28023KT 24/03 A2983 RMK A01 T02390025  RH  025%=      5-min Rain = 0
KMC4 181930Z 27019KT 24/02 A2983 RMK A01 T02380024  RH  025%=      5-min Rain = 0
KMC4 181931Z 27017KT 24/03 A2983 RMK A01 T02380025  RH  025%=      5-min Rain = 0
KMC4 181932Z 27018KT 24/03 A2983 RMK A01 T02390025  RH  025%=      5-min Rain = 0
KMC4 181933Z 27019KT 24/03 A2983 RMK A01 T02410027  RH  025%=      5-min Rain = 0
KMC4 181934Z 27018G23KT 24/03 A2983 RMK A01 T02420025  RH  024%=      5-min Rain = 0
KMC4 181935Z 26018KT 24/03 A2983 RMK A01 T02420025  RH  024%=      5-min Rain = 0
KMC4 181936Z 26019KT 24/02 A2983 RMK A01 T02420024  RH  024%=      5-min Rain = 0
KMC4 181937Z 26020G25KT 24/03 A2983 RMK A01 T02420025  RH  024%=      5-min Rain = 0
KMC4 181938Z 28020KT 24/02 A2982 RMK A01 T02420024  RH  024%=      5-min Rain = 0
KMC4 181939Z 27017KT 24/02 A2982 RMK A01 T02410022  RH  024%=      5-min Rain = 0
KMC4 181940Z 26017G22KT 24/02 A2982 RMK A01 T02400022  RH  024%=      5-min Rain = 0
KMC4 181941Z 26018KT 24/02 A2982 RMK A01 T02410023  RH  024%=      5-min Rain = 0
KMC4 181942Z 26015KT 24/03 A2982 RMK A01 T02410025  RH  024%=      5-min Rain = 0
KMC4 181943Z 26019KT 24/02 A2982 RMK A01 T02430024  RH  024%=      5-min Rain = 0
KMC4 181944Z 26020KT 24/02 A2982 RMK A01 T02430021  RH  023%=      5-min Rain = 0
KMC4 181945Z 26019KT 24/02 A2982 RMK A01 T02420020  RH  023%=      5-min Rain = 0
KMC4 181946Z 27022G27KT 24/02 A2982 RMK A01 T02410018  RH  023%=      5-min Rain = 0
KMC4 181947Z 27020G25KT 24/02 A2982 RMK A01 T02410019  RH  023%=      5-min Rain = 0
KMC4 181948Z 27025KT 24/02 A2982 RMK A01 T02410017  RH  023%=      5-min Rain = 0
KMC4 181949Z 27022G27KT 24/02 A2981 RMK A01 T02400015  RH  023%=      5-min Rain = 0
KMC4 181950Z 26021KT 24/02 A2982 RMK A01 T02410018  RH  023%=      5-min Rain = 0
KMC4 181951Z 27019G24KT 24/02 A2981 RMK A01 T02430016  RH  023%=      5-min Rain = 0
KMC4 181952Z 27020G27KT 24/02 A2981 RMK A01 T02430017  RH  023%=      5-min Rain = 0
KMC4 181953Z 26022G31KT 24/02 A2981 RMK A01 T02440017  RH  023%=      5-min Rain = 0
KMC4 181954Z 26022KT 25/02 A2981 RMK A01 T02450016  RH  022%=      5-min Rain = 0
KMC4 181955Z 27023KT 24/01 A2981 RMK A01 T02430014  RH  022%=      5-min Rain = 0
KMC4 181956Z 27021KT 24/01 A2981 RMK A01 T02400014  RH  023%=      5-min Rain = 0
KMC4 181957Z 27021KT 24/01 A2981 RMK A01 T02380013  RH  023%=      5-min Rain = 0
KMC4 181958Z 26020G25KT 24/01 A2981 RMK A01 T02360013  RH  023%=      5-min Rain = 0
KMC4 181959Z 26018KT 24/01 A2981 RMK A01 T02350013  RH  023%=      5-min Rain = 0
KMC4 182000Z 27020G25KT 24/01 A298 RMK A01 T02350013  RH  023%=      5-min Rain = 0
KMC4 182001Z 27020G26KT 23/01 A298 RMK A01 T02340010  RH  023%=      5-min Rain = 0
KMC4 182002Z 27022G28KT 23/01 A298 RMK A01 T02340010  RH  023%=      5-min Rain = 0
KMC4 182003Z 27022G27KT 23/01 A2979 RMK A01 T02340010  RH  023%=      5-min Rain = 0
KMC4 182004Z 27020G26KT 24/01 A298 RMK A01 T02360013  RH  023%=      5-min Rain = 0
KMC4 182005Z 27020G25KT 24/01 A298 RMK A01 T02380013  RH  023%=      5-min Rain = 0
KMC4 182006Z 25024KT 24/01 A2979 RMK A01 T02380013  RH  023%=      5-min Rain = 0
KMC4 182007Z 26018G24KT 24/01 A298 RMK A01 T02380014  RH  023%=      5-min Rain = 0
KMC4 182008Z 26018KT 24/02 A298 RMK A01 T02400016  RH  023%=      5-min Rain = 0
KMC4 182009Z 27022KT 24/02 A298 RMK A01 T02410016  RH  023%=      5-min Rain = 0
KMC4 182010Z 26022G28KT 24/02 A298 RMK A01 T02400015  RH  023%=      5-min Rain = 0
KMC4 182011Z 26023KT 24/01 A2979 RMK A01 T02390013  RH  023%=      5-min Rain = 0
KMC4 182012Z 27019G24KT 24/02 A298 RMK A01 T02380015  RH  023%=      5-min Rain = 0
KMC4 182013Z 26021KT 24/02 A298 RMK A01 T02410018  RH  023%=      5-min Rain = 0
KMC4 182014Z 26023KT 24/02 A2979 RMK A01 T02410016  RH  023%=      5-min Rain = 0
KMC4 182015Z 26022KT 24/02 A2979 RMK A01 T02400015  RH  023%=      5-min Rain = 0
KMC4 182016Z 26020KT 24/01 A2979 RMK A01 T02390014  RH  023%=      5-min Rain = 0
KMC4 182017Z 26016G21KT 24/02 A298 RMK A01 T02370015  RH  023%=      5-min Rain = 0
KMC4 182018Z 27017G23KT 24/02 A298 RMK A01 T02380017  RH  023%=      5-min Rain = 0
KMC4 182019Z 27017G22KT 24/02 A298 RMK A01 T02400018  RH  023%=      5-min Rain = 0
KMC4 182020Z 27022KT 24/02 A2979 RMK A01 T02430018  RH  023%=      5-min Rain = 0
KMC4 182021Z 27020G25KT 24/02 A2979 RMK A01 T02430016  RH  023%=      5-min Rain = 0
KMC4 182022Z 27019G26KT 24/02 A2979 RMK A01 T02440017  RH  023%=      5-min Rain = 0
KMC4 182023Z 28024G30KT 24/02 A2979 RMK A01 T02440015  RH  022%=      5-min Rain = 0
KMC4 182024Z 28022KT 24/01 A2979 RMK A01 T02440013  RH  022%=      5-min Rain = 0
KMC4 182025Z 27021G26KT 24/01 A2979 RMK A01 T02420012  RH  022%=      5-min Rain = 0
KMC4 182026Z 28022G27KT 24/01 A2979 RMK A01 T02400013  RH  022%=      5-min Rain = 0
KMC4 182027Z 29024KT 24/01 A2979 RMK A01 T02390013  RH  023%=      5-min Rain = 0
KMC4 182028Z 29025KT 24/01 A2979 RMK A01 T02380012  RH  023%=      5-min Rain = 0
KMC4 182029Z 29025KT 24/01 A2979 RMK A01 T02350011  RH  023%=      5-min Rain = 0
KMC4 182030Z 28021KT 23/01 A2979 RMK A01 T02340011  RH  023%=      5-min Rain = 0
KMC4 182031Z 28019KT 23/01 A2979 RMK A01 T02340013  RH  023%=      5-min Rain = 0
KMC4 182032Z 28022G27KT 23/01 A2979 RMK A01 T02340014  RH  024%=      5-min Rain = 0
KMC4 182033Z 28023KT 23/01 A2979 RMK A01 T02340014  RH  024%=      5-min Rain = 0
KMC4 182034Z 28020KT 23/01 A2979 RMK A01 T02330014  RH  024%=      5-min Rain = 0
KMC4 182035Z 28020KT 23/02 A2979 RMK A01 T02320015  RH  024%=      5-min Rain = 0
KMC4 182036Z 28024KT 23/01 A2979 RMK A01 T02330013  RH  023%=      5-min Rain = 0
KMC4 182037Z 28020G27KT 23/01 A2979 RMK A01 T02330013  RH  023%=      5-min Rain = 0
KMC4 182038Z 28019G25KT 23/02 A2979 RMK A01 T02340016  RH  024%=      5-min Rain = 0
KMC4 182039Z 28025KT 23/02 A2979 RMK A01 T02340015  RH  024%=      5-min Rain = 0
KMC4 182040Z 28023G28KT 23/01 A2979 RMK A01 T02310013  RH  024%=      5-min Rain = 0
KMC4 182041Z 28019KT 23/02 A2979 RMK A01 T02300015  RH  024%=      5-min Rain = 0
KMC4 182042Z 28023G30KT 23/02 A2979 RMK A01 T02300015  RH  024%=      5-min Rain = 0
KMC4 182043Z 28023KT 23/01 A2979 RMK A01 T02310014  RH  024%=      5-min Rain = 0
KMC4 182044Z 27024G30KT 23/01 A2978 RMK A01 T02310013  RH  024%=      5-min Rain = 0
KMC4 182045Z 28023G28KT 23/02 A2979 RMK A01 T02310015  RH  024%=      5-min Rain = 0
KMC4 182046Z 28025G32KT 23/01 A2978 RMK A01 T02320014  RH  024%=      5-min Rain = 0
KMC4 182047Z 28022G28KT 23/01 A2978 RMK A01 T02330014  RH  024%=      5-min Rain = 0
KMC4 182048Z 27025G30KT 23/01 A2978 RMK A01 T02340014  RH  023%=      5-min Rain = 0
KMC4 182049Z 27022KT 23/01 A2978 RMK A01 T02340014  RH  024%=      5-min Rain = 0
KMC4 182050Z 27020KT 23/02 A2978 RMK A01 T02340015  RH  024%=      5-min Rain = 0
KMC4 182051Z 27019KT 23/02 A2978 RMK A01 T02340015  RH  024%=      5-min Rain = 0
KMC4 182052Z 27023KT 23/02 A2977 RMK A01 T02340015  RH  024%=      5-min Rain = 0
KMC4 182053Z 27018KT 23/02 A2978 RMK A01 T02340015  RH  024%=      5-min Rain = 0
KMC4 182054Z 26021KT 24/02 A2978 RMK A01 T02350017  RH  024%=      5-min Rain = 0
KMC4 182055Z 26021KT 24/02 A2977 RMK A01 T02350015  RH  023%=      5-min Rain = 0
KMC4 182056Z 26020G26KT 23/01 A2977 RMK A01 T02340014  RH  023%=      5-min Rain = 0
KMC4 182057Z 25017KT 23/02 A2977 RMK A01 T02330016  RH  024%=      5-min Rain = 0
KMC4 182058Z 26018KT 23/02 A2977 RMK A01 T02340017  RH  024%=      5-min Rain = 0
KMC4 182059Z 26018KT 24/02 A2977 RMK A01 T02350019  RH  024%=      5-min Rain = 0
KMC4 182100Z 27017KT 24/02 A2977 RMK A01 T02360018  RH  024%=      5-min Rain = 0
KMC4 182101Z 27016KT 24/02 A2977 RMK A01 T02360020  RH  024%=      5-min Rain = 0
KMC4 182102Z 27018KT 24/02 A2977 RMK A01 T02370020  RH  024%=      5-min Rain = 0
KMC4 182103Z 27016KT 24/02 A2977 RMK A01 T02370020  RH  024%=      5-min Rain = 0
KMC4 182104Z 27016KT 24/02 A2977 RMK A01 T02370017  RH  024%=      5-min Rain = 0
KMC4 182105Z 27016KT 24/02 A2977 RMK A01 T02370018  RH  024%=      5-min Rain = 0
KMC4 182106Z 26016KT 24/02 A2977 RMK A01 T02370019  RH  024%=      5-min Rain = 0
KMC4 182107Z 27021KT 24/02 A2976 RMK A01 T02370017  RH  024%=      5-min Rain = 0
KMC4 182108Z 27019KT 24/02 A2976 RMK A01 T02360019  RH  024%=      5-min Rain = 0
KMC4 182109Z 27017KT 24/02 A2976 RMK A01 T02350019  RH  024%=      5-min Rain = 0
KMC4 182110Z 27019KT 24/02 A2976 RMK A01 T02360018  RH  024%=      5-min Rain = 0
KMC4 182111Z 26019KT 24/02 A2976 RMK A01 T02360017  RH  024%=      5-min Rain = 0
KMC4 182112Z 26020G25KT 24/02 A2976 RMK A01 T02370018  RH  024%=      5-min Rain = 0
KMC4 182113Z 27018KT 24/02 A2976 RMK A01 T02370019  RH  024%=      5-min Rain = 0
KMC4 182114Z 27020KT 24/02 A2976 RMK A01 T02380016  RH  023%=      5-min Rain = 0
KMC4 182115Z 27019G24KT 24/02 A2976 RMK A01 T02380017  RH  024%=      5-min Rain = 0
KMC4 182116Z 27020G25KT 24/02 A2976 RMK A01 T02370017  RH  023%=      5-min Rain = 0
KMC4 182117Z 27020KT 24/02 A2976 RMK A01 T02370017  RH  023%=      5-min Rain = 0
KMC4 182118Z 28021G26KT 24/02 A2976 RMK A01 T02370015  RH  023%=      5-min Rain = 0
KMC4 182119Z 28021KT 24/01 A2976 RMK A01 T02370014  RH  023%=      5-min Rain = 0
KMC4 182120Z 27024KT 24/02 A2976 RMK A01 T02370015  RH  023%=      5-min Rain = 0
KMC4 182121Z 27020KT 24/01 A2976 RMK A01 T02360014  RH  023%=      5-min Rain = 0
KMC4 182122Z 27021G27KT 24/02 A2976 RMK A01 T02370015  RH  023%=      5-min Rain = 0
KMC4 182123Z 28025KT 24/01 A2976 RMK A01 T02380014  RH  023%=      5-min Rain = 0
KMC4 182124Z 27021KT 24/01 A2976 RMK A01 T02370012  RH  023%=      5-min Rain = 0
KMC4 182125Z 27022KT 24/01 A2976 RMK A01 T02370013  RH  023%=      5-min Rain = 0
KMC4 182126Z 27018KT 24/01 A2976 RMK A01 T02370013  RH  023%=      5-min Rain = 0
KMC4 182127Z 28019KT 24/01 A2976 RMK A01 T02360014  RH  023%=      5-min Rain = 0
KMC4 182128Z 28018KT 24/01 A2976 RMK A01 T02370014  RH  023%=      5-min Rain = 0
KMC4 182129Z 28019KT 24/02 A2976 RMK A01 T02380016  RH  023%=      5-min Rain = 0
KMC4 182130Z 27019KT 24/02 A2976 RMK A01 T02390015  RH  023%=      5-min Rain = 0
KMC4 182131Z 28018KT 24/02 A2977 RMK A01 T02380015  RH  023%=      5-min Rain = 0
KMC4 182132Z 28017G22KT 24/02 A2977 RMK A01 T02390017  RH  023%=      5-min Rain = 0
KMC4 182133Z 28018KT 24/02 A2977 RMK A01 T02400016  RH  023%=      5-min Rain = 0
KMC4 182134Z 27018G24KT 24/02 A2977 RMK A01 T02410015  RH  023%=      5-min Rain = 0
KMC4 182135Z 27019KT 24/01 A2977 RMK A01 T02410013  RH  022%=      5-min Rain = 0
KMC4 182136Z 27018G23KT 24/01 A2977 RMK A01 T02400013  RH  023%=      5-min Rain = 0
KMC4 182137Z 27021KT 24/01 A2976 RMK A01 T02390013  RH  023%=      5-min Rain = 0
KMC4 182138Z 28020G26KT 24/01 A2976 RMK A01 T02400012  RH  022%=      5-min Rain = 0
KMC4 182139Z 28016G21KT 24/01 A2976 RMK A01 T02390012  RH  022%=      5-min Rain = 0
KMC4 182140Z 28022KT 24/01 A2976 RMK A01 T02400013  RH  023%=      5-min Rain = 0
KMC4 182141Z 28020KT 24/01 A2976 RMK A01 T02400010  RH  022%=      5-min Rain = 0
KMC4 182142Z 28020KT 24/01 A2976 RMK A01 T02400011  RH  022%=      5-min Rain = 0
KMC4 182143Z 28018KT 24/01 A2976 RMK A01 T02390011  RH  022%=      5-min Rain = 0
KMC4 182144Z 28020KT 24/01 A2976 RMK A01 T02400011  RH  022%=      5-min Rain = 0
KMC4 182145Z 28021KT 24/01 A2976 RMK A01 T02400011  RH  022%=      5-min Rain = 0
KMC4 182146Z 28018KT 24/01 A2976 RMK A01 T02400012  RH  022%=      5-min Rain = 0
KMC4 182147Z 28023KT 24/01 A2976 RMK A01 T02400011  RH  022%=      5-min Rain = 0
KMC4 182148Z 28019G25KT 24/01 A2976 RMK A01 T02390010  RH  022%=      5-min Rain = 0
KMC4 182149Z 28019G24KT 24/01 A2976 RMK A01 T02380012  RH  023%=      5-min Rain = 0
KMC4 182150Z 28018KT 24/01 A2976 RMK A01 T02390011  RH  022%=      5-min Rain = 0
KMC4 182151Z 28016KT 24/01 A2976 RMK A01 T02400014  RH  023%=      5-min Rain = 0
KMC4 182152Z 28020KT 24/01 A2976 RMK A01 T02410012  RH  022%=      5-min Rain = 0
KMC4 182153Z 28019KT 24/01 A2976 RMK A01 T02400009  RH  022%=      5-min Rain = 0
KMC4 182154Z 28021KT 24/01 A2976 RMK A01 T02390010  RH  022%=      5-min Rain = 0
KMC4 182155Z 29017G22KT 24/01 A2976 RMK A01 T02390011  RH  022%=      5-min Rain = 0
KMC4 182156Z 28020KT 24/01 A2976 RMK A01 T02400012  RH  022%=      5-min Rain = 0
KMC4 182157Z 28019KT 24/01 A2976 RMK A01 T02410011  RH  022%=      5-min Rain = 0
KMC4 182158Z 28020KT 24/01 A2976 RMK A01 T02400010  RH  022%=      5-min Rain = 0
KMC4 182159Z 28022KT 24/01 A2976 RMK A01 T02410011  RH  022%=      5-min Rain = 0
KMC4 182200Z 28022KT 24/01 A2976 RMK A01 T02410011  RH  022%=      5-min Rain = 0
KMC4 182201Z 29021KT 24/01 A2976 RMK A01 T02400011  RH  022%=      5-min Rain = 0
KMC4 182202Z 28017G22KT 24/01 A2976 RMK A01 T02400013  RH  022%=      5-min Rain = 0
KMC4 182203Z 28019KT 24/01 A2976 RMK A01 T02410013  RH  022%=      5-min Rain = 0
KMC4 182204Z 28020KT 24/01 A2976 RMK A01 T02420012  RH  022%=      5-min Rain = 0
KMC4 182205Z 30017KT 24/01 A2976 RMK A01 T02400013  RH  022%=      5-min Rain = 0
KMC4 182206Z 29020KT 24/01 A2976 RMK A01 T02390012  RH  023%=      5-min Rain = 0
KMC4 182207Z 29017G24KT 24/01 A2976 RMK A01 T02380011  RH  023%=      5-min Rain = 0
KMC4 182208Z 29015KT 24/01 A2977 RMK A01 T02380013  RH  023%=      5-min Rain = 0
KMC4 182209Z 29021G27KT 24/01 A2977 RMK A01 T02380010  RH  022%=      5-min Rain = 0
KMC4 182210Z 29023G28KT 24/01 A2976 RMK A01 T02370007  RH  022%=      5-min Rain = 0
KMC4 182211Z 29020G27KT 24/01 A2976 RMK A01 T02360007  RH  022%=      5-min Rain = 0
KMC4 182212Z 29021G26KT 24/01 A2976 RMK A01 T02360008  RH  022%=      5-min Rain = 0
KMC4 182213Z 29020G26KT 24/01 A2976 RMK A01 T02370009  RH  022%=      5-min Rain = 0
KMC4 182214Z 28024G29KT 24/01 A2976 RMK A01 T02370008  RH  022%=      5-min Rain = 0
KMC4 182215Z 29021KT 24/01 A2976 RMK A01 T02370007  RH  022%=      5-min Rain = 0
KMC4 182216Z 28019G24KT 24/01 A2976 RMK A01 T02370009  RH  022%=      5-min Rain = 0
KMC4 182217Z 29017KT 24/01 A2976 RMK A01 T02370009  RH  022%=      5-min Rain = 0
KMC4 182218Z 29019G27KT 24/01 A2976 RMK A01 T02370010  RH  022%=      5-min Rain = 0
KMC4 182219Z 30018G24KT 24/01 A2976 RMK A01 T02360010  RH  023%=      5-min Rain = 0
KMC4 182220Z 30016KT 23/01 A2976 RMK A01 T02340010  RH  023%=      5-min Rain = 0
KMC4 182221Z 30019KT 23/01 A2976 RMK A01 T02330010  RH  023%=      5-min Rain = 0
KMC4 182222Z 29015KT 23/01 A2976 RMK A01 T02320010  RH  023%=      5-min Rain = 0
KMC4 182223Z 30017G24KT 23/01 A2976 RMK A01 T02330010  RH  023%=      5-min Rain = 0
KMC4 182224Z 30018KT 23/01 A2976 RMK A01 T02320008  RH  023%=      5-min Rain = 0
KMC4 182225Z 29016KT 23/01 A2976 RMK A01 T02330009  RH  023%=      5-min Rain = 0
KMC4 182226Z 29015KT 23/01 A2976 RMK A01 T02340009  RH  023%=      5-min Rain = 0
KMC4 182227Z 30014G19KT 24/01 A2976 RMK A01 T02350010  RH  023%=      5-min Rain = 0
KMC4 182228Z 29020G25KT 24/01 A2976 RMK A01 T02360010  RH  023%=      5-min Rain = 0
KMC4 182229Z 29024KT 24/01 A2976 RMK A01 T02360010  RH  022%=      5-min Rain = 0
KMC4 182230Z 30023G29KT 24/01 A2976 RMK A01 T02350008  RH  022%=      5-min Rain = 0
KMC4 182231Z 30018G24KT 24/01 A2976 RMK A01 T02350008  RH  022%=      5-min Rain = 0
KMC4 182232Z 30022G27KT 23/01 A2976 RMK A01 T02340008  RH  022%=      5-min Rain = 0
KMC4 182233Z 30022KT 24/01 A2976 RMK A01 T02350008  RH  022%=      5-min Rain = 0
KMC4 182234Z 30021KT 24/01 A2976 RMK A01 T02350009  RH  023%=      5-min Rain = 0
KMC4 182235Z 30019G24KT 24/01 A2976 RMK A01 T02350012  RH  023%=      5-min Rain = 0
KMC4 182236Z 29018G25KT 23/01 A2976 RMK A01 T02340011  RH  023%=      5-min Rain = 0
KMC4 182237Z 30018KT 24/01 A2976 RMK A01 T02350011  RH  023%=      5-min Rain = 0
KMC4 182238Z 29018G23KT 24/01 A2976 RMK A01 T02350011  RH  023%=      5-min Rain = 0
KMC4 182239Z 29017KT 24/01 A2976 RMK A01 T02350011  RH  023%=      5-min Rain = 0
KMC4 182240Z 30019KT 24/01 A2976 RMK A01 T02350011  RH  023%=      5-min Rain = 0
KMC4 182241Z 29017G22KT 24/01 A2976 RMK A01 T02350011  RH  023%=      5-min Rain = 0
KMC4 182242Z 30020G25KT 23/01 A2976 RMK A01 T02340011  RH  023%=      5-min Rain = 0
KMC4 182243Z 30018G24KT 23/01 A2976 RMK A01 T02340010  RH  023%=      5-min Rain = 0
KMC4 182244Z 29020KT 23/01 A2976 RMK A01 T02340010  RH  023%=      5-min Rain = 0
KMC4 182245Z 29019G24KT 23/01 A2976 RMK A01 T02340010  RH  023%=      5-min Rain = 0
KMC4 182246Z 30022G27KT 23/01 A2976 RMK A01 T02340010  RH  023%=      5-min Rain = 0
KMC4 182247Z 30022KT 23/01 A2976 RMK A01 T02340009  RH  023%=      5-min Rain = 0
KMC4 182248Z 30023KT 23/01 A2976 RMK A01 T02330009  RH  023%=      5-min Rain = 0
KMC4 182249Z 29022G28KT 23/01 A2976 RMK A01 T02330008  RH  023%=      5-min Rain = 0
KMC4 182250Z 30016KT 23/01 A2977 RMK A01 T02320009  RH  023%=      5-min Rain = 0
KMC4 182251Z 30022G27KT 23/01 A2977 RMK A01 T02320011  RH  023%=      5-min Rain = 0
KMC4 182252Z 30019G24KT 23/01 A2977 RMK A01 T02320009  RH  023%=      5-min Rain = 0
KMC4 182253Z 30017KT 23/01 A2977 RMK A01 T02310010  RH  023%=      5-min Rain = 0
KMC4 182254Z 30019KT 23/01 A2976 RMK A01 T02310011  RH  023%=      5-min Rain = 0
KMC4 182255Z 30017KT 23/01 A2977 RMK A01 T02310011  RH  023%=      5-min Rain = 0
KMC4 182256Z 30016G21KT 23/01 A2977 RMK A01 T02310011  RH  024%=      5-min Rain = 0
KMC4 182257Z 30020KT 23/01 A2977 RMK A01 T02310012  RH  024%=      5-min Rain = 0
KMC4 182258Z 30020KT 23/01 A2977 RMK A01 T02310011  RH  023%=      5-min Rain = 0
KMC4 182259Z 30018G24KT 23/01 A2977 RMK A01 T02310012  RH  024%=      5-min Rain = 0
KMC4 182300Z 30017KT 23/01 A2977 RMK A01 T02300012  RH  024%=      5-min Rain = 0
KMC4 182301Z 30017KT 23/01 A2977 RMK A01 T02300012  RH  024%=      5-min Rain = 0
KMC4 182302Z 30016KT 23/01 A2977 RMK A01 T02300012  RH  024%=      5-min Rain = 0
KMC4 182303Z 30023G28KT 23/01 A2977 RMK A01 T02300012  RH  024%=      5-min Rain = 0
KMC4 182304Z 30019KT 23/01 A2977 RMK A01 T02290011  RH  024%=      5-min Rain = 0
KMC4 182305Z 30020G25KT 23/01 A2977 RMK A01 T02290012  RH  024%=      5-min Rain = 0
KMC4 182306Z 30018KT 23/01 A2977 RMK A01 T02280011  RH  024%=      5-min Rain = 0
KMC4 182307Z 30019G28KT 23/01 A2977 RMK A01 T02280012  RH  024%=      5-min Rain = 0
KMC4 182308Z 30022G27KT 23/01 A2977 RMK A01 T02260010  RH  024%=      5-min Rain = 0
KMC4 182309Z 30022G27KT 23/01 A2977 RMK A01 T02260010  RH  024%=      5-min Rain = 0
KMC4 182310Z 30020G25KT 23/01 A2977 RMK A01 T02250010  RH  024%=      5-min Rain = 0
KMC4 182311Z 30019G27KT 23/01 A2977 RMK A01 T02250011  RH  024%=      5-min Rain = 0
KMC4 182312Z 30018G24KT 23/01 A2977 RMK A01 T02250011  RH  024%=      5-min Rain = 0
KMC4 182313Z 30019KT 22/01 A2977 RMK A01 T02240011  RH  024%=      5-min Rain = 0
KMC4 182314Z 30018KT 22/01 A2977 RMK A01 T02240011  RH  024%=      5-min Rain = 0
KMC4 182315Z 30018G23KT 22/01 A2977 RMK A01 T02240011  RH  024%=      5-min Rain = 0
KMC4 182316Z 30021KT 22/01 A2977 RMK A01 T02240010  RH  024%=      5-min Rain = 0
KMC4 182317Z 30019KT 22/01 A2977 RMK A01 T02230010  RH  024%=      5-min Rain = 0
KMC4 182318Z 31019KT 22/01 A2977 RMK A01 T02230010  RH  025%=      5-min Rain = 0
KMC4 182319Z 30020KT 22/01 A2977 RMK A01 T02220011  RH  025%=      5-min Rain = 0
KMC4 182320Z 30019G24KT 22/01 A2977 RMK A01 T02220011  RH  025%=      5-min Rain = 0
KMC4 182321Z 30021KT 22/01 A2977 RMK A01 T02220012  RH  025%=      5-min Rain = 0
KMC4 182322Z 30020KT 22/01 A2977 RMK A01 T02220011  RH  025%=      5-min Rain = 0
KMC4 182323Z 30021KT 22/01 A2977 RMK A01 T02220011  RH  025%=      5-min Rain = 0
KMC4 182324Z 30017G22KT 22/01 A2978 RMK A01 T02210011  RH  025%=      5-min Rain = 0
KMC4 182325Z 30017KT 22/01 A2978 RMK A01 T02210011  RH  025%=      5-min Rain = 0
KMC4 182326Z 31017G24KT 22/01 A2978 RMK A01 T02200012  RH  025%=      5-min Rain = 0
KMC4 182327Z 31017KT 22/01 A2978 RMK A01 T02200013  RH  025%=      5-min Rain = 0
KMC4 182328Z 31019G24KT 22/01 A2978 RMK A01 T02190013  RH  026%=      5-min Rain = 0
KMC4 182329Z 31017KT 22/01 A2978 RMK A01 T02180013  RH  026%=      5-min Rain = 0
KMC4 182330Z 31015G21KT 22/01 A2978 RMK A01 T02180014  RH  026%=      5-min Rain = 0
KMC4 182331Z 30014G19KT 22/01 A2978 RMK A01 T02170014  RH  026%=      5-min Rain = 0
KMC4 182332Z 30017KT 22/01 A2978 RMK A01 T02170014  RH  026%=      5-min Rain = 0
KMC4 182333Z 30015KT 22/01 A2978 RMK A01 T02170014  RH  026%=      5-min Rain = 0
KMC4 182334Z 30016G21KT 22/02 A2978 RMK A01 T02160015  RH  026%=      5-min Rain = 0
KMC4 182335Z 30017G22KT 22/02 A2978 RMK A01 T02160015  RH  026%=      5-min Rain = 0
KMC4 182336Z 30016KT 22/02 A2978 RMK A01 T02160015  RH  026%=      5-min Rain = 0
KMC4 182337Z 30017G22KT 22/01 A2978 RMK A01 T02150014  RH  026%=      5-min Rain = 0
KMC4 182338Z 30018KT 22/01 A2978 RMK A01 T02150014  RH  026%=      5-min Rain = 0
KMC4 182339Z 30014KT 22/01 A2978 RMK A01 T02150014  RH  026%=      5-min Rain = 0
KMC4 182340Z 30017KT 22/02 A2978 RMK A01 T02150015  RH  027%=      5-min Rain = 0
KMC4 182341Z 30014KT 22/01 A2978 RMK A01 T02150014  RH  026%=      5-min Rain = 0
KMC4 182342Z 29013KT 21/02 A2978 RMK A01 T02140015  RH  027%=      5-min Rain = 0
KMC4 182343Z 29016G23KT 21/02 A2978 RMK A01 T02140015  RH  027%=      5-min Rain = 0
KMC4 182344Z 30018G24KT 21/02 A2978 RMK A01 T02140015  RH  027%=      5-min Rain = 0
KMC4 182345Z 30016G21KT 21/02 A2978 RMK A01 T02140015  RH  027%=      5-min Rain = 0
KMC4 182346Z 30015KT 21/02 A2978 RMK A01 T02130015  RH  027%=      5-min Rain = 0
KMC4 182347Z 30015KT 21/02 A2978 RMK A01 T02130015  RH  027%=      5-min Rain = 0
KMC4 182348Z 31017KT 21/02 A2978 RMK A01 T02120016  RH  027%=      5-min Rain = 0
KMC4 182349Z 30017KT 21/02 A2978 RMK A01 T02120015  RH  027%=      5-min Rain = 0
KMC4 182350Z 30014KT 21/01 A2978 RMK A01 T02120014  RH  027%=      5-min Rain = 0
KMC4 182351Z 30013KT 21/02 A2978 RMK A01 T02120016  RH  027%=      5-min Rain = 0
KMC4 182352Z 30010KT 21/02 A2978 RMK A01 T02120016  RH  027%=      5-min Rain = 0
KMC4 182353Z 30013G18KT 21/02 A2978 RMK A01 T02110017  RH  028%=      5-min Rain = 0
KMC4 182354Z 30014G19KT 21/02 A2978 RMK A01 T02110017  RH  028%=      5-min Rain = 0
KMC4 182355Z 30012KT 21/02 A2978 RMK A01 T02100017  RH  028%=      5-min Rain = 0
KMC4 182356Z 29015KT 21/02 A2978 RMK A01 T02090017  RH  028%=      5-min Rain = 0
KMC4 182357Z 30016KT 21/02 A2978 RMK A01 T02100018  RH  028%=      5-min Rain = 0
KMC4 182358Z 31010KT 21/02 A2978 RMK A01 T02090018  RH  028%=      5-min Rain = 0
KMC4 182359Z 31013G19KT 21/02 A2978 RMK A01 T02080019  RH  029%=      5-min Rain = 0
KMC4 190000Z 31015KT 21/02 A2978 RMK A01 T02070019  RH  029%=      5-min Rain = 0
KMC4 190001Z 31011KT 21/02 A2978 RMK A01 T02070020  RH  029%=      5-min Rain = 0
KMC4 190002Z 30008G13KT 21/02 A2978 RMK A01 T02060021  RH  029%=      5-min Rain = 0
KMC4 190003Z 30014KT 21/02 A2978 RMK A01 T02050021  RH  030%=      5-min Rain = 0
KMC4 190004Z 31010KT 20/02 A2978 RMK A01 T02040022  RH  030%=      5-min Rain = 0
KMC4 190005Z 30012KT 20/02 A2978 RMK A01 T02040022  RH  030%=      5-min Rain = 0
KMC4 190006Z 30014KT 20/02 A2979 RMK A01 T02040023  RH  030%=      5-min Rain = 0
KMC4 190007Z 30011KT 20/02 A2978 RMK A01 T02030023  RH  030%=      5-min Rain = 0
KMC4 190008Z 30012KT 20/02 A2978 RMK A01 T02030023  RH  030%=      5-min Rain = 0
KMC4 190009Z 30014KT 20/02 A2978 RMK A01 T02030023  RH  030%=      5-min Rain = 0
KMC4 190010Z 31013G22KT 20/02 A2978 RMK A01 T02030023  RH  030%=      5-min Rain = 0
KMC4 190011Z 30016G21KT 20/02 A2978 RMK A01 T02020023  RH  031%=      5-min Rain = 0
KMC4 190012Z 30015G21KT 20/02 A2978 RMK A01 T02020024  RH  031%=      5-min Rain = 0
KMC4 190013Z 31015KT 20/02 A2978 RMK A01 T02020024  RH  031%=      5-min Rain = 0
KMC4 190014Z 30012G17KT 20/02 A2978 RMK A01 T02010024  RH  031%=      5-min Rain = 0
KMC4 190015Z 31014KT 20/03 A2978 RMK A01 T02010025  RH  031%=      5-min Rain = 0
KMC4 190016Z 30014KT 20/02 A2978 RMK A01 T02000024  RH  031%=      5-min Rain = 0
KMC4 190017Z 31017G26KT 20/03 A2978 RMK A01 T02000025  RH  031%=      5-min Rain = 0
KMC4 190018Z 30032G38KT 20/03 A2978 RMK A01 T02000025  RH  031%=      5-min Rain = 0
KMC4 190019Z 31024G31KT 20/02 A2978 RMK A01 T01990024  RH  031%=      5-min Rain = 0
KMC4 190020Z 32017G24KT 20/03 A2979 RMK A01 T01960025  RH  032%=      5-min Rain = 0
KMC4 190021Z 32024G31KT 19/03 A2979 RMK A01 T01940025  RH  032%=      5-min Rain = 0
KMC4 190022Z 32018G23KT 19/03 A2979 RMK A01 T01930025  RH  033%=      5-min Rain = 0
KMC4 190023Z 32018G23KT 19/03 A2979 RMK A01 T01910025  RH  033%=      5-min Rain = 0
KMC4 190024Z 33021KT 19/03 A2979 RMK A01 T01900025  RH  033%=      5-min Rain = 0
KMC4 190025Z 33020G27KT 19/03 A2979 RMK A01 T01890025  RH  034%=      5-min Rain = 0
KMC4 190026Z 34024G29KT 19/03 A2979 RMK A01 T01870025  RH  034%=      5-min Rain = 0
KMC4 190027Z 33022G27KT 19/02 A298 RMK A01 T01850024  RH  034%=      5-min Rain = 0
KMC4 190028Z 34021G26KT 18/02 A298 RMK A01 T01830023  RH  034%=      5-min Rain = 0
KMC4 190029Z 33021G26KT 18/02 A298 RMK A01 T01810023  RH  035%=      5-min Rain = 0
KMC4 190030Z 33020G25KT 18/02 A298 RMK A01 T01790023  RH  035%=      5-min Rain = 0
KMC4 190031Z 33018KT 18/02 A298 RMK A01 T01780022  RH  035%=      5-min Rain = 0
KMC4 190032Z 33021KT 18/02 A298 RMK A01 T01770022  RH  035%=      5-min Rain = 0
KMC4 190033Z 33015KT 18/02 A298 RMK A01 T01760022  RH  036%=      5-min Rain = 0
KMC4 190034Z 34016G21KT 18/02 A298 RMK A01 T01760022  RH  036%=      5-min Rain = 0
KMC4 190035Z 34018G26KT 18/02 A298 RMK A01 T01750022  RH  036%=      5-min Rain = 0
KMC4 190036Z 33019G25KT 17/02 A298 RMK A01 T01740021  RH  036%=      5-min Rain = 0
KMC4 190037Z 33021G28KT 17/02 A298 RMK A01 T01740021  RH  036%=      5-min Rain = 0
KMC4 190038Z 33022G28KT 17/02 A2981 RMK A01 T01740020  RH  036%=      5-min Rain = 0
KMC4 190039Z 33022G29KT 17/02 A2981 RMK A01 T01740020  RH  036%=      5-min Rain = 0
KMC4 190040Z 33021KT 17/02 A2981 RMK A01 T01730020  RH  036%=      5-min Rain = 0
KMC4 190041Z 33018G25KT 17/02 A2981 RMK A01 T01730019  RH  036%=      5-min Rain = 0
KMC4 190042Z 33016G23KT 17/02 A2981 RMK A01 T01720019  RH  036%=      5-min Rain = 0
KMC4 190043Z 33019KT 17/02 A2981 RMK A01 T01710018  RH  036%=      5-min Rain = 0
KMC4 190044Z 33017G23KT 17/02 A2981 RMK A01 T01710019  RH  036%=      5-min Rain = 0
KMC4 190045Z 33022G28KT 17/02 A2981 RMK A01 T01700018  RH  036%=      5-min Rain = 0
KMC4 190046Z 33023G30KT 17/02 A2981 RMK A01 T01700017  RH  036%=      5-min Rain = 0
KMC4 190047Z 33020G26KT 17/02 A2981 RMK A01 T01700016  RH  036%=      5-min Rain = 0
KMC4 190048Z 33017KT 17/02 A2981 RMK A01 T01700016  RH  036%=      5-min Rain = 0
KMC4 190049Z 33020G26KT 17/02 A2981 RMK A01 T01690016  RH  036%=      5-min Rain = 0
KMC4 190050Z 33022G27KT 17/02 A2981 RMK A01 T01690016  RH  036%=      5-min Rain = 0
KMC4 190051Z 33023G29KT 17/02 A2981 RMK A01 T01680015  RH  036%=      5-min Rain = 0
KMC4 190052Z 33019KT 17/02 A2981 RMK A01 T01680015  RH  036%=      5-min Rain = 0
KMC4 190053Z 33019G24KT 17/02 A2981 RMK A01 T01680015  RH  036%=      5-min Rain = 0
KMC4 190054Z 33020KT 17/02 A2981 RMK A01 T01670015  RH  036%=      5-min Rain = 0
KMC4 190055Z 33018KT 17/02 A2981 RMK A01 T01670015  RH  036%=      5-min Rain = 0
KMC4 190056Z 33020KT 17/02 A2981 RMK A01 T01670015  RH  036%=      5-min Rain = 0
KMC4 190057Z 32022KT 17/01 A2981 RMK A01 T01660014  RH  036%=      5-min Rain = 0
KMC4 190058Z 32018G26KT 17/01 A2982 RMK A01 T01660014  RH  036%=      5-min Rain = 0
KMC4 190059Z 33019G27KT 17/01 A2982 RMK A01 T01660014  RH  036%=      5-min Rain = 0
KMC4 190100Z 33017G26KT 17/01 A2982 RMK A01 T01660013  RH  036%=      5-min Rain = 0
KMC4 190101Z 33018G25KT 17/01 A2982 RMK A01 T01660014  RH  036%=      5-min Rain = 0
KMC4 190102Z 32019KT 17/01 A2982 RMK A01 T01650012  RH  036%=      5-min Rain = 0
KMC4 190103Z 33017G22KT 17/01 A2982 RMK A01 T01650012  RH  035%=      5-min Rain = 0
KMC4 190104Z 32021G26KT 17/01 A2982 RMK A01 T01650012  RH  035%=      5-min Rain = 0
KMC4 190105Z 33018G23KT 17/01 A2982 RMK A01 T01650011  RH  035%=      5-min Rain = 0
KMC4 190106Z 32016KT 17/01 A2982 RMK A01 T01660011  RH  035%=      5-min Rain = 0
KMC4 190107Z 33019KT 17/01 A2982 RMK A01 T01650012  RH  035%=      5-min Rain = 0
KMC4 190108Z 32020KT 17/01 A2982 RMK A01 T01650011  RH  035%=      5-min Rain = 0
KMC4 190109Z 32014KT 17/01 A2983 RMK A01 T01650010  RH  035%=      5-min Rain = 0
KMC4 190110Z 32017G22KT 17/01 A2983 RMK A01 T01650011  RH  035%=      5-min Rain = 0
KMC4 190111Z 32018G24KT 17/01 A2983 RMK A01 T01650010  RH  035%=      5-min Rain = 0
KMC4 190112Z 33018KT 17/01 A2983 RMK A01 T01650009  RH  035%=      5-min Rain = 0
KMC4 190113Z 32017G27KT 17/01 A2983 RMK A01 T01650009  RH  035%=      5-min Rain = 0
KMC4 190114Z 32018G23KT 17/01 A2983 RMK A01 T01650008  RH  035%=      5-min Rain = 0
KMC4 190115Z 33019KT 17/01 A2983 RMK A01 T01650007  RH  034%=      5-min Rain = 0
KMC4 190116Z 32019G24KT 17/01 A2983 RMK A01 T01650006  RH  034%=      5-min Rain = 0
KMC4 190117Z 32018G24KT 17/01 A2983 RMK A01 T01650005  RH  034%=      5-min Rain = 0
KMC4 190118Z 32018G24KT 17/00 A2983 RMK A01 T01650004  RH  034%=      5-min Rain = 0
KMC4 190119Z 32018G23KT 16/00 A2983 RMK A01 T01640004  RH  034%=      5-min Rain = 0
KMC4 190120Z 32015KT 16/00 A2984 RMK A01 T01640002  RH  033%=      5-min Rain = 0
KMC4 190121Z 32015G21KT 16/00 A2984 RMK A01 T01640001  RH  033%=      5-min Rain = 0
KMC4 190122Z 32019G26KT 16/00 A2984 RMK A01 T01640000  RH  033%=      5-min Rain = 0
KMC4 190123Z 32020G26KT 16/M00 A2984 RMK A01 T01631002  RH  032%=      5-min Rain = 0
KMC4 190124Z 33020G25KT 16/M00 A2983 RMK A01 T01641004  RH  032%=      5-min Rain = 0
KMC4 190125Z 33019G25KT 16/M01 A2984 RMK A01 T01641005  RH  032%=      5-min Rain = 0
KMC4 190126Z 32016KT 16/M01 A2984 RMK A01 T01641005  RH  032%=      5-min Rain = 0
KMC4 190127Z 33014KT 16/M01 A2984 RMK A01 T01641005  RH  032%=      5-min Rain = 0
KMC4 190128Z 32013G20KT 16/M01 A2984 RMK A01 T01631005  RH  032%=      5-min Rain = 0
KMC4 190129Z 33018G23KT 16/M01 A2984 RMK A01 T01631006  RH  032%=      5-min Rain = 0
KMC4 190130Z 32018KT 16/M01 A2984 RMK A01 T01631007  RH  031%=      5-min Rain = 0
KMC4 190131Z 32019G25KT 16/M01 A2984 RMK A01 T01631008  RH  031%=      5-min Rain = 0
KMC4 190132Z 33015KT 16/M01 A2985 RMK A01 T01631008  RH  031%=      5-min Rain = 0
KMC4 190133Z 32018G29KT 16/M01 A2985 RMK A01 T01631008  RH  031%=      5-min Rain = 0
KMC4 190134Z 32018G23KT 16/M01 A2985 RMK A01 T01631010  RH  031%=      5-min Rain = 0
KMC4 190135Z 33016KT 16/M01 A2985 RMK A01 T01631010  RH  031%=      5-min Rain = 0
KMC4 190136Z 31016G22KT 16/M01 A2985 RMK A01 T01631010  RH  031%=      5-min Rain = 0
KMC4 190137Z 32018KT 16/M01 A2985 RMK A01 T01631011  RH  031%=      5-min Rain = 0
KMC4 190138Z 32019KT 16/M01 A2985 RMK A01 T01631012  RH  030%=      5-min Rain = 0
KMC4 190139Z 32018G23KT 16/M01 A2986 RMK A01 T01631013  RH  030%=      5-min Rain = 0
KMC4 190140Z 32015G21KT 16/M01 A2986 RMK A01 T01631013  RH  030%=      5-min Rain = 0
KMC4 190141Z 32020KT 16/M01 A2986 RMK A01 T01631013  RH  030%=      5-min Rain = 0
KMC4 190142Z 32019G25KT 16/M01 A2986 RMK A01 T01631013  RH  030%=      5-min Rain = 0
KMC4 190143Z 32017G24KT 16/M02 A2986 RMK A01 T01631015  RH  030%=      5-min Rain = 0
KMC4 190144Z 32015KT 16/M02 A2986 RMK A01 T01631015  RH  030%=      5-min Rain = 0
KMC4 190145Z 33016G24KT 16/M02 A2986 RMK A01 T01631015  RH  030%=      5-min Rain = 0
KMC4 190146Z 32015G22KT 16/M02 A2987 RMK A01 T01621015  RH  030%=      5-min Rain = 0
KMC4 190147Z 32019G25KT 16/M02 A2986 RMK A01 T01621016  RH  030%=      5-min Rain = 0
KMC4 190148Z 32019KT 16/M02 A2986 RMK A01 T01621018  RH  029%=      5-min Rain = 0
KMC4 190149Z 33019KT 16/M02 A2987 RMK A01 T01621018  RH  029%=      5-min Rain = 0
KMC4 190150Z 33017KT 16/M02 A2987 RMK A01 T01621018  RH  029%=      5-min Rain = 0
KMC4 190151Z 33018KT 16/M02 A2987 RMK A01 T01621018  RH  029%=      5-min Rain = 0
KMC4 190152Z 33020KT 16/M02 A2987 RMK A01 T01621020  RH  029%=      5-min Rain = 0
KMC4 190153Z 32017KT 16/M02 A2987 RMK A01 T01621020  RH  029%=      5-min Rain = 0
KMC4 190154Z 32018G23KT 16/M02 A2987 RMK A01 T01621020  RH  029%=      5-min Rain = 0
KMC4 190155Z 33016G23KT 16/M02 A2987 RMK A01 T01611020  RH  029%=      5-min Rain = 0
KMC4 190156Z 33018G25KT 16/M02 A2988 RMK A01 T01611020  RH  029%=      5-min Rain = 0
KMC4 190157Z 33019G24KT 16/M02 A2987 RMK A01 T01611023  RH  028%=      5-min Rain = 0
KMC4 190158Z 32018G23KT 16/M02 A2988 RMK A01 T01611023  RH  028%=      5-min Rain = 0
KMC4 190159Z 32023G30KT 16/M02 A2988 RMK A01 T01611024  RH  028%=      5-min Rain = 0
KMC4 190200Z 32019G27KT 16/M03 A2988 RMK A01 T01621025  RH  028%=      5-min Rain = 0
KMC4 190201Z 32020G28KT 16/M03 A2988 RMK A01 T01621025  RH  028%=      5-min Rain = 0
KMC4 190202Z 32021KT 16/M03 A2988 RMK A01 T01621025  RH  028%=      5-min Rain = 0
KMC4 190203Z 32013KT 16/M03 A2988 RMK A01 T01621025  RH  028%=      5-min Rain = 0
KMC4 190204Z 32016KT 16/M02 A2988 RMK A01 T01611024  RH  028%=      5-min Rain = 0
KMC4 190205Z 33015KT 16/M02 A2989 RMK A01 T01601024  RH  028%=      5-min Rain = 0
KMC4 190206Z 32015KT 16/M03 A2989 RMK A01 T01591025  RH  028%=      5-min Rain = 0
KMC4 190207Z 32015G22KT 16/M03 A2989 RMK A01 T01591025  RH  028%=      5-min Rain = 0
KMC4 190208Z 32017KT 16/M03 A2989 RMK A01 T01591026  RH  028%=      5-min Rain = 0
KMC4 190209Z 32019G25KT 16/M03 A2989 RMK A01 T01591027  RH  028%=      5-min Rain = 0
KMC4 190210Z 32014KT 16/M03 A2989 RMK A01 T01591028  RH  028%=      5-min Rain = 0
KMC4 190211Z 32018G23KT 16/M03 A2989 RMK A01 T01591027  RH  028%=      5-min Rain = 0
KMC4 190212Z 32017KT 16/M03 A2989 RMK A01 T01591029  RH  027%=      5-min Rain = 0
KMC4 190213Z 32020G25KT 16/M03 A2989 RMK A01 T01591030  RH  027%=      5-min Rain = 0
KMC4 190214Z 32016G22KT 16/M03 A299 RMK A01 T01591030  RH  027%=      5-min Rain = 0
KMC4 190215Z 32014KT 16/M03 A299 RMK A01 T01591028  RH  028%=      5-min Rain = 0
KMC4 190216Z 32013KT 16/M03 A299 RMK A01 T01581028  RH  028%=      5-min Rain = 0
KMC4 190217Z 32013G18KT 16/M03 A299 RMK A01 T01571028  RH  028%=      5-min Rain = 0
KMC4 190218Z 32012KT 16/M03 A299 RMK A01 T01561029  RH  028%=      5-min Rain = 0
KMC4 190219Z 32015KT 16/M03 A299 RMK A01 T01561029  RH  028%=      5-min Rain = 0
KMC4 190220Z 32018KT 16/M03 A299 RMK A01 T01561032  RH  027%=      5-min Rain = 0
KMC4 190221Z 31014G20KT 16/M03 A299 RMK A01 T01561033  RH  027%=      5-min Rain = 0
KMC4 190222Z 32012G17KT 16/M03 A299 RMK A01 T01571032  RH  027%=      5-min Rain = 0
KMC4 190223Z 32010KT 16/M03 A299 RMK A01 T01561032  RH  027%=      5-min Rain = 0
KMC4 190224Z 31012G17KT 16/M03 A2991 RMK A01 T01551032  RH  027%=      5-min Rain = 0
KMC4 190225Z 31011G16KT 15/M03 A2991 RMK A01 T01541032  RH  027%=      5-min Rain = 0
KMC4 190226Z 31012KT 15/M03 A2991 RMK A01 T01541033  RH  027%=      5-min Rain = 0
KMC4 190227Z 31014KT 15/M03 A2991 RMK A01 T01541033  RH  027%=      5-min Rain = 0
KMC4 190228Z 31012KT 15/M04 A2991 RMK A01 T01531036  RH  027%=      5-min Rain = 0
KMC4 190229Z 32013KT 15/M04 A2991 RMK A01 T01541037  RH  027%=      5-min Rain = 0
KMC4 190230Z 31011G16KT 15/M04 A2991 RMK A01 T01541039  RH  026%=      5-min Rain = 0
KMC4 190231Z 32016KT 15/M04 A2991 RMK A01 T01541041  RH  026%=      5-min Rain = 0
KMC4 190232Z 31014KT 15/M04 A2991 RMK A01 T01541042  RH  026%=      5-min Rain = 0
KMC4 190233Z 32014KT 15/M04 A2991 RMK A01 T01541043  RH  025%=      5-min Rain = 0
KMC4 190234Z 32012KT 15/M05 A2991 RMK A01 T01541046  RH  025%=      5-min Rain = 0
KMC4 190235Z 31014KT 15/M05 A2991 RMK A01 T01541046  RH  025%=      5-min Rain = 0
KMC4 190236Z 32016KT 15/M05 A2991 RMK A01 T01541049  RH  024%=      5-min Rain = 0
KMC4 190237Z 32017KT 16/M05 A2991 RMK A01 T01551050  RH  024%=      5-min Rain = 0
KMC4 190238Z 32013G19KT 16/M05 A2991 RMK A01 T01561050  RH  024%=      5-min Rain = 0
KMC4 190239Z 31013G18KT 16/M05 A2991 RMK A01 T01551049  RH  024%=      5-min Rain = 0
KMC4 190240Z 31016KT 16/M05 A2991 RMK A01 T01551052  RH  024%=      5-min Rain = 0
KMC4 190241Z 31013KT 16/M05 A2992 RMK A01 T01551052  RH  023%=      5-min Rain = 0
KMC4 190242Z 31011KT 16/M05 A2992 RMK A01 T01551053  RH  023%=      5-min Rain = 0
KMC4 190243Z 31014KT 16/M05 A2992 RMK A01 T01551052  RH  024%=      5-min Rain = 0
KMC4 190244Z 31010KT 15/M05 A2992 RMK A01 T01541053  RH  023%=      5-min Rain = 0
KMC4 190245Z 31011KT 15/M05 A2992 RMK A01 T01541052  RH  024%=      5-min Rain = 0
KMC4 190246Z 31012KT 15/M05 A2992 RMK A01 T01541054  RH  023%=      5-min Rain = 0
KMC4 190247Z 31012KT 15/M06 A2992 RMK A01 T01541055  RH  023%=      5-min Rain = 0
KMC4 190248Z 31013KT 15/M06 A2992 RMK A01 T01541057  RH  023%=      5-min Rain = 0
KMC4 190249Z 31013KT 16/M06 A2992 RMK A01 T01551057  RH  023%=      5-min Rain = 0
KMC4 190250Z 31012G17KT 16/M06 A2992 RMK A01 T01551058  RH  022%=      5-min Rain = 0
KMC4 190251Z 32016G22KT 16/M06 A2992 RMK A01 T01561058  RH  022%=      5-min Rain = 0
KMC4 190252Z 31019G27KT 16/M06 A2992 RMK A01 T01571060  RH  022%=      5-min Rain = 0
KMC4 190253Z 31016G22KT 16/M06 A2992 RMK A01 T01581061  RH  022%=      5-min Rain = 0
KMC4 190254Z 31014G23KT 16/M06 A2992 RMK A01 T01591060  RH  022%=      5-min Rain = 0
KMC4 190255Z 32015G22KT 16/M06 A2992 RMK A01 T01591060  RH  022%=      5-min Rain = 0
KMC4 190256Z 31010KT 16/M06 A2992 RMK A01 T01591060  RH  022%=      5-min Rain = 0
KMC4 190257Z 31011KT 16/M06 A2992 RMK A01 T01591059  RH  022%=      5-min Rain = 0
KMC4 190258Z 31013KT 16/M06 A2992 RMK A01 T01581059  RH  022%=      5-min Rain = 0
KMC4 190259Z 31012KT 16/M06 A2992 RMK A01 T01581060  RH  022%=      5-min Rain = 0
KMC4 190300Z 31010KT 16/M06 A2993 RMK A01 T01581059  RH  022%=      5-min Rain = 0
KMC4 190301Z 31013KT 16/M06 A2992 RMK A01 T01571058  RH  022%=      5-min Rain = 0
KMC4 190302Z 30016KT 16/M06 A2992 RMK A01 T01571059  RH  022%=      5-min Rain = 0
KMC4 190303Z 31014KT 16/M06 A2993 RMK A01 T01581060  RH  022%=      5-min Rain = 0
KMC4 190304Z 32014KT 16/M06 A2993 RMK A01 T01581060  RH  022%=      5-min Rain = 0
KMC4 190305Z 31015G20KT 16/M06 A2993 RMK A01 T01581059  RH  022%=      5-min Rain = 0
KMC4 190306Z 31017KT 16/M06 A2993 RMK A01 T01581059  RH  022%=      5-min Rain = 0
KMC4 190307Z 32014KT 16/M06 A2993 RMK A01 T01591060  RH  022%=      5-min Rain = 0
KMC4 190308Z 32013KT 16/M06 A2993 RMK A01 T01591059  RH  022%=      5-min Rain = 0
KMC4 190309Z 31014G25KT 16/M06 A2993 RMK A01 T01601058  RH  022%=      5-min Rain = 0
KMC4 190310Z 31016KT 16/M06 A2993 RMK A01 T01591059  RH  022%=      5-min Rain = 0
KMC4 190311Z 31017KT 16/M06 A2993 RMK A01 T01601059  RH  022%=      5-min Rain = 0
KMC4 190312Z 31012KT 16/M06 A2993 RMK A01 T01601059  RH  022%=      5-min Rain = 0
KMC4 190313Z 31012G17KT 16/M06 A2993 RMK A01 T01601058  RH  022%=      5-min Rain = 0
KMC4 190314Z 32017KT 16/M06 A2993 RMK A01 T01591058  RH  022%=      5-min Rain = 0
KMC4 190315Z 32019G24KT 16/M06 A2993 RMK A01 T01591058  RH  022%=      5-min Rain = 0
KMC4 190316Z 32020G25KT 16/M06 A2993 RMK A01 T01601058  RH  022%=      5-min Rain = 0
KMC4 190317Z 32015KT 16/M06 A2993 RMK A01 T01601058  RH  022%=      5-min Rain = 0
KMC4 190318Z 32015KT 16/M06 A2993 RMK A01 T01601057  RH  022%=      5-min Rain = 0
KMC4 190319Z 31012KT 16/M06 A2994 RMK A01 T01601057  RH  022%=      5-min Rain = 0
KMC4 190320Z 32014KT 16/M06 A2994 RMK A01 T01591056  RH  022%=      5-min Rain = 0
KMC4 190321Z 32013G19KT 16/M06 A2994 RMK A01 T01581056  RH  022%=      5-min Rain = 0
KMC4 190322Z 31015KT 16/M06 A2994 RMK A01 T01581055  RH  023%=      5-min Rain = 0
KMC4 190323Z 31018KT 16/M06 A2993 RMK A01 T01581055  RH  023%=      5-min Rain = 0
KMC4 190324Z 32018KT 16/M06 A2994 RMK A01 T01591055  RH  022%=      5-min Rain = 0
KMC4 190325Z 32018KT 16/M06 A2994 RMK A01 T01601055  RH  022%=      5-min Rain = 0
KMC4 190326Z 32015KT 16/M06 A2994 RMK A01 T01591055  RH  023%=      5-min Rain = 0
KMC4 190327Z 32014G19KT 16/M05 A2994 RMK A01 T01601054  RH  023%=      5-min Rain = 0
KMC4 190328Z 32019KT 16/M05 A2994 RMK A01 T01591054  RH  023%=      5-min Rain = 0
KMC4 190329Z 31016KT 16/M05 A2994 RMK A01 T01591054  RH  023%=      5-min Rain = 0
KMC4 190330Z 32021G26KT 16/M05 A2994 RMK A01 T01601054  RH  023%=      5-min Rain = 0
KMC4 190331Z 31016KT 16/M05 A2994 RMK A01 T01601054  RH  023%=      5-min Rain = 0
KMC4 190332Z 31017KT 16/M05 A2994 RMK A01 T01601053  RH  023%=      5-min Rain = 0
KMC4 190333Z 31016KT 16/M05 A2994 RMK A01 T01601053  RH  023%=      5-min Rain = 0
KMC4 190334Z 31020G28KT 16/M05 A2994 RMK A01 T01601052  RH  023%=      5-min Rain = 0
KMC4 190335Z 31018KT 16/M05 A2995 RMK A01 T01601053  RH  023%=      5-min Rain = 0
KMC4 190336Z 31015G20KT 16/M05 A2995 RMK A01 T01601052  RH  023%=      5-min Rain = 0
KMC4 190337Z 32012KT 16/M05 A2995 RMK A01 T01601051  RH  023%=      5-min Rain = 0
KMC4 190338Z 31013G19KT 16/M05 A2995 RMK A01 T01591051  RH  023%=      5-min Rain = 0
KMC4 190339Z 31019G27KT 16/M05 A2995 RMK A01 T01591051  RH  023%=      5-min Rain = 0
KMC4 190340Z 32018G25KT 16/M05 A2995 RMK A01 T01591052  RH  023%=      5-min Rain = 0
KMC4 190341Z 32018KT 16/M05 A2995 RMK A01 T01601052  RH  023%=      5-min Rain = 0
KMC4 190342Z 31018KT 16/M05 A2995 RMK A01 T01601053  RH  023%=      5-min Rain = 0
KMC4 190343Z 32017KT 16/M05 A2995 RMK A01 T01601053  RH  023%=      5-min Rain = 0
KMC4 190344Z 31016G21KT 16/M05 A2996 RMK A01 T01611051  RH  023%=      5-min Rain = 0
KMC4 190345Z 30019G27KT 16/M05 A2996 RMK A01 T01601051  RH  023%=      5-min Rain = 0
KMC4 190346Z 31019G25KT 16/M05 A2996 RMK A01 T01601052  RH  023%=      5-min Rain = 0
KMC4 190347Z 31019G26KT 16/M05 A2996 RMK A01 T01601052  RH  023%=      5-min Rain = 0
KMC4 190348Z 31019KT 16/M05 A2996 RMK A01 T01611053  RH  023%=      5-min Rain = 0
KMC4 190349Z 31020KT 16/M05 A2996 RMK A01 T01611052  RH  023%=      5-min Rain = 0
KMC4 190350Z 31020G28KT 16/M05 A2996 RMK A01 T01611053  RH  023%=      5-min Rain = 0
KMC4 190351Z 31019G27KT 16/M05 A2996 RMK A01 T01611054  RH  022%=      5-min Rain = 0
KMC4 190352Z 31016KT 16/M05 A2996 RMK A01 T01611054  RH  022%=      5-min Rain = 0
KMC4 190353Z 31018KT 16/M05 A2996 RMK A01 T01611053  RH  022%=      5-min Rain = 0
KMC4 190354Z 31019G24KT 16/M05 A2996 RMK A01 T01611054  RH  022%=      5-min Rain = 0
KMC4 190355Z 31018G23KT 16/M06 A2996 RMK A01 T01601055  RH  022%=      5-min Rain = 0
KMC4 190356Z 31025G32KT 16/M06 A2995 RMK A01 T01601058  RH  022%=      5-min Rain = 0
KMC4 190357Z 31021G27KT 16/M06 A2996 RMK A01 T01611059  RH  021%=      5-min Rain = 0
KMC4 190358Z 31024KT 16/M06 A2996 RMK A01 T01621058  RH  022%=      5-min Rain = 0
KMC4 190359Z 31017G23KT 16/M06 A2996 RMK A01 T01621058  RH  022%=      5-min Rain = 0
KMC4 190400Z 31017KT 16/M06 A2996 RMK A01 T01611057  RH  022%=      5-min Rain = 0
KMC4 190401Z 31019KT 16/M06 A2996 RMK A01 T01611058  RH  022%=      5-min Rain = 0
KMC4 190402Z 31018KT 16/M06 A2996 RMK A01 T01611058  RH  022%=      5-min Rain = 0
KMC4 190403Z 31016G23KT 16/M06 A2996 RMK A01 T01601058  RH  022%=      5-min Rain = 0
KMC4 190404Z 31018G23KT 16/M06 A2996 RMK A01 T01591058  RH  022%=      5-min Rain = 0
KMC4 190405Z 31016G21KT 16/M06 A2996 RMK A01 T01591060  RH  022%=      5-min Rain = 0
KMC4 190406Z 31020G27KT 16/M06 A2996 RMK A01 T01591059  RH  022%=      5-min Rain = 0
KMC4 190407Z 32022KT 16/M06 A2997 RMK A01 T01591060  RH  022%=      5-min Rain = 0
KMC4 190408Z 31020G26KT 16/M06 A2997 RMK A01 T01601061  RH  021%=      5-min Rain = 0
KMC4 190409Z 31020G27KT 16/M06 A2997 RMK A01 T01601061  RH  021%=      5-min Rain = 0
KMC4 190410Z 31019KT 16/M06 A2997 RMK A01 T01591060  RH  022%=      5-min Rain = 0
KMC4 190411Z 31020KT 16/M06 A2996 RMK A01 T01591061  RH  022%=      5-min Rain = 0
KMC4 190412Z 31017KT 16/M06 A2997 RMK A01 T01591061  RH  021%=      5-min Rain = 0
KMC4 190413Z 31018KT 16/M06 A2997 RMK A01 T01591060  RH  022%=      5-min Rain = 0
KMC4 190414Z 31016KT 16/M06 A2997 RMK A01 T01581060  RH  022%=      5-min Rain = 0
KMC4 190415Z 31018KT 16/M06 A2997 RMK A01 T01581060  RH  022%=      5-min Rain = 0
KMC4 190416Z 31016G21KT 16/M06 A2997 RMK A01 T01581060  RH  022%=      5-min Rain = 0
KMC4 190417Z 32018KT 16/M06 A2997 RMK A01 T01571059  RH  022%=      5-min Rain = 0
KMC4 190418Z 31016KT 16/M06 A2997 RMK A01 T01571060  RH  022%=      5-min Rain = 0
KMC4 190419Z 32019G25KT 16/M06 A2998 RMK A01 T01571059  RH  022%=      5-min Rain = 0
KMC4 190420Z 31017KT 16/M06 A2997 RMK A01 T01571059  RH  022%=      5-min Rain = 0
KMC4 190421Z 31018G23KT 16/M06 A2997 RMK A01 T01571059  RH  022%=      5-min Rain = 0
KMC4 190422Z 32016KT 16/M06 A2997 RMK A01 T01571059  RH  022%=      5-min Rain = 0
KMC4 190423Z 31017G22KT 16/M06 A2997 RMK A01 T01561059  RH  022%=      5-min Rain = 0
KMC4 190424Z 31014G19KT 16/M06 A2998 RMK A01 T01571059  RH  022%=      5-min Rain = 0
KMC4 190425Z 31016KT 16/M06 A2998 RMK A01 T01561059  RH  022%=      5-min Rain = 0
KMC4 190426Z 31013KT 16/M06 A2998 RMK A01 T01561059  RH  022%=      5-min Rain = 0
KMC4 190427Z 31013KT 16/M06 A2998 RMK A01 T01551058  RH  023%=      5-min Rain = 0
KMC4 190428Z 31016KT 16/M06 A2998 RMK A01 T01551058  RH  023%=      5-min Rain = 0
KMC4 190429Z 31014KT 16/M06 A2998 RMK A01 T01551058  RH  023%=      5-min Rain = 0
KMC4 190430Z 31017KT 16/M06 A2998 RMK A01 T01551058  RH  023%=      5-min Rain = 0
KMC4 190431Z 31016G22KT 15/M06 A2998 RMK A01 T01541058  RH  023%=      5-min Rain = 0
KMC4 190432Z 32014KT 16/M06 A2999 RMK A01 T01551057  RH  023%=      5-min Rain = 0
KMC4 190433Z 31014KT 15/M06 A2999 RMK A01 T01541057  RH  023%=      5-min Rain = 0
KMC4 190434Z 31016G22KT 15/M06 A2999 RMK A01 T01541057  RH  023%=      5-min Rain = 0
KMC4 190435Z 31015G20KT 15/M06 A2999 RMK A01 T01541057  RH  023%=      5-min Rain = 0
KMC4 190436Z 31014G19KT 15/M06 A30 RMK A01 T01541057  RH  023%=      5-min Rain = 0
KMC4 190437Z 31018G25KT 15/M06 A2999 RMK A01 T01541056  RH  023%=      5-min Rain = 0
KMC4 190438Z 31017KT 15/M06 A2999 RMK A01 T01541056  RH  023%=      5-min Rain = 0
KMC4 190439Z 31015KT 15/M06 A30 RMK A01 T01531055  RH  023%=      5-min Rain = 0
KMC4 190440Z 31014KT 15/M05 A30 RMK A01 T01531054  RH  024%=      5-min Rain = 0
KMC4 190441Z 31020G25KT 15/M05 A30 RMK A01 T01521054  RH  024%=      5-min Rain = 0
KMC4 190442Z 31023KT 15/M05 A2999 RMK A01 T01521054  RH  024%=      5-min Rain = 0
KMC4 190443Z 31018G24KT 15/M05 A2999 RMK A01 T01521054  RH  024%=      5-min Rain = 0
KMC4 190444Z 31020G27KT 15/M05 A2999 RMK A01 T01521053  RH  024%=      5-min Rain = 0
KMC4 190445Z 31023G35KT 15/M05 A30 RMK A01 T01521052  RH  024%=      5-min Rain = 0
KMC4 190446Z 31025G31KT 15/M05 A30 RMK A01 T01521053  RH  024%=      5-min Rain = 0
KMC4 190447Z 31021G26KT 15/M05 A30 RMK A01 T01521054  RH  024%=      5-min Rain = 0
KMC4 190448Z 31024G29KT 15/M06 A30 RMK A01 T01511055  RH  024%=      5-min Rain = 0
KMC4 190449Z 32026G31KT 15/M06 A30 RMK A01 T01521055  RH  024%=      5-min Rain = 0
KMC4 190450Z 32024G31KT 15/M06 A30 RMK A01 T01521055  RH  024%=      5-min Rain = 0
KMC4 190451Z 32027G33KT 15/M06 A30 RMK A01 T01511056  RH  023%=      5-min Rain = 0
KMC4 190452Z 31023G28KT 15/M06 A30 RMK A01 T01511057  RH  023%=      5-min Rain = 0
KMC4 190453Z 32023G29KT 15/M06 A30 RMK A01 T01501057  RH  023%=      5-min Rain = 0
KMC4 190454Z 31026G41KT 15/M06 A30 RMK A01 T01501057  RH  023%=      5-min Rain = 0
KMC4 190455Z 32027G34KT 15/M06 A30 RMK A01 T01491058  RH  023%=      5-min Rain = 0
KMC4 190456Z 31023G30KT 15/M06 A3001 RMK A01 T01491058  RH  023%=      5-min Rain = 0
KMC4 190457Z 31023G29KT 15/M06 A3001 RMK A01 T01481058  RH  024%=      5-min Rain = 0
KMC4 190458Z 31021KT 15/M06 A3001 RMK A01 T01481058  RH  024%=      5-min Rain = 0
KMC4 190459Z 31024G30KT 15/M06 A3001 RMK A01 T01471057  RH  024%=      5-min Rain = 0
KMC4 190500Z 31022KT 15/M06 A3001 RMK A01 T01461058  RH  024%=      5-min Rain = 0
KMC4 190501Z 31020KT 15/M06 A3002 RMK A01 T01471058  RH  024%=      5-min Rain = 0
KMC4 190502Z 32024KT 15/M06 A3002 RMK A01 T01461058  RH  024%=      5-min Rain = 0
KMC4 190503Z 31021KT 15/M06 A3002 RMK A01 T01461058  RH  024%=      5-min Rain = 0
KMC4 190504Z 32022G29KT 15/M06 A3002 RMK A01 T01451058  RH  024%=      5-min Rain = 0
KMC4 190505Z 31023G31KT 15/M06 A3002 RMK A01 T01451058  RH  024%=      5-min Rain = 0
KMC4 190506Z 32019G27KT 15/M06 A3002 RMK A01 T01451058  RH  024%=      5-min Rain = 0
KMC4 190507Z 31022G28KT 15/M06 A3002 RMK A01 T01451058  RH  024%=      5-min Rain = 0
KMC4 190508Z 32021G26KT 15/M06 A3002 RMK A01 T01451057  RH  024%=      5-min Rain = 0
KMC4 190509Z 31017G24KT 14/M06 A3003 RMK A01 T01441057  RH  024%=      5-min Rain = 0
KMC4 190510Z 31025G32KT 14/M06 A3003 RMK A01 T01431057  RH  025%=      5-min Rain = 0
KMC4 190511Z 32020G26KT 14/M06 A3003 RMK A01 T01431058  RH  024%=      5-min Rain = 0
KMC4 190512Z 31019G26KT 14/M06 A3003 RMK A01 T01431057  RH  025%=      5-min Rain = 0
KMC4 190513Z 31023G31KT 14/M06 A3003 RMK A01 T01431057  RH  025%=      5-min Rain = 0
KMC4 190514Z 31024KT 14/M06 A3003 RMK A01 T01431057  RH  025%=      5-min Rain = 0
KMC4 190515Z 31019KT 14/M06 A3003 RMK A01 T01421057  RH  025%=      5-min Rain = 0
KMC4 190516Z 31020G30KT 14/M06 A3003 RMK A01 T01421057  RH  025%=      5-min Rain = 0
KMC4 190517Z 31025G34KT 14/M06 A3003 RMK A01 T01421057  RH  025%=      5-min Rain = 0
KMC4 190518Z 32023KT 14/M06 A3003 RMK A01 T01421057  RH  025%=      5-min Rain = 0
KMC4 190519Z 32020G28KT 14/M06 A3003 RMK A01 T01421057  RH  025%=      5-min Rain = 0
KMC4 190520Z 31016KT 14/M06 A3004 RMK A01 T01411057  RH  025%=      5-min Rain = 0
KMC4 190521Z 31020G25KT 14/M06 A3003 RMK A01 T01401056  RH  025%=      5-min Rain = 0
KMC4 190522Z 32019G24KT 14/M06 A3004 RMK A01 T01401056  RH  025%=      5-min Rain = 0
KMC4 190523Z 33022G27KT 14/M06 A3004 RMK A01 T01401056  RH  025%=      5-min Rain = 0
KMC4 190524Z 31020KT 14/M06 A3004 RMK A01 T01401055  RH  025%=      5-min Rain = 0
KMC4 190525Z 31024G32KT 14/M06 A3004 RMK A01 T01391055  RH  025%=      5-min Rain = 0
KMC4 190526Z 31016KT 14/M06 A3004 RMK A01 T01391055  RH  026%=      5-min Rain = 0
KMC4 190527Z 31018G25KT 14/M05 A3005 RMK A01 T01381054  RH  026%=      5-min Rain = 0
KMC4 190528Z 32018KT 14/M06 A3005 RMK A01 T01381055  RH  026%=      5-min Rain = 0
KMC4 190529Z 32018G24KT 14/M05 A3005 RMK A01 T01381054  RH  026%=      5-min Rain = 0
KMC4 190530Z 32020G27KT 14/M05 A3005 RMK A01 T01371054  RH  026%=      5-min Rain = 0
KMC4 190531Z 32019G27KT 14/M05 A3005 RMK A01 T01371054  RH  026%=      5-min Rain = 0
KMC4 190532Z 32022G29KT 14/M05 A3005 RMK A01 T01371053  RH  026%=      5-min Rain = 0
KMC4 190533Z 32019G24KT 14/M05 A3005 RMK A01 T01361052  RH  027%=      5-min Rain = 0
KMC4 190534Z 32017KT 14/M05 A3005 RMK A01 T01361052  RH  027%=      5-min Rain = 0
KMC4 190535Z 32020G26KT 14/M05 A3006 RMK A01 T01351051  RH  027%=      5-min Rain = 0
KMC4 190536Z 32018KT 13/M05 A3006 RMK A01 T01341050  RH  028%=      5-min Rain = 0
KMC4 190537Z 33020G25KT 13/M04 A3006 RMK A01 T01331042  RH  029%=      5-min Rain = 0
KMC4 190538Z 33018KT 13/M03 A3006 RMK A01 T01321034  RH  031%=      5-min Rain = 0
KMC4 190539Z 33015KT 13/M03 A3007 RMK A01 T01301029  RH  033%=      5-min Rain = 0
KMC4 190540Z 33014KT 13/M03 A3007 RMK A01 T01291025  RH  034%=      5-min Rain = 0
KMC4 190541Z 34014G19KT 13/M02 A3007 RMK A01 T01271021  RH  036%=      5-min Rain = 0
KMC4 190542Z 33016G23KT 13/M02 A3007 RMK A01 T01261015  RH  038%=      5-min Rain = 0
KMC4 190543Z 33019KT 12/M01 A3007 RMK A01 T01241006  RH  040%=      5-min Rain = 0
KMC4 190544Z 34018G25KT 12/M00 A3007 RMK A01 T01231002  RH  042%=      5-min Rain = 0
KMC4 190545Z 34023KT 12/00 A3007 RMK A01 T01210001  RH  044%=      5-min Rain = 0
KMC4 190546Z 33021KT 12/00 A3007 RMK A01 T01200003  RH  045%=      5-min Rain = 0
KMC4 190547Z 34018KT 12/00 A3007 RMK A01 T01200004  RH  045%=      5-min Rain = 0
KMC4 190548Z 34019KT 12/01 A3008 RMK A01 T01190005  RH  046%=      5-min Rain = 0
KMC4 190549Z 33014KT 12/01 A3008 RMK A01 T01180005  RH  046%=      5-min Rain = 0
KMC4 190550Z 34018KT 12/01 A3008 RMK A01 T01170006  RH  046%=      5-min Rain = 0
KMC4 190551Z 33014G19KT 12/01 A3008 RMK A01 T01160006  RH  047%=      5-min Rain = 0
KMC4 190552Z 33015G20KT 12/01 A3008 RMK A01 T01150006  RH  047%=      5-min Rain = 0
KMC4 190553Z 34017KT 12/01 A3007 RMK A01 T01150007  RH  048%=      5-min Rain = 0
KMC4 190554Z 33018KT 11/01 A3008 RMK A01 T01140008  RH  048%=      5-min Rain = 0
KMC4 190555Z 33014KT 11/01 A3008 RMK A01 T01130008  RH  048%=      5-min Rain = 0
KMC4 190556Z 33013KT 11/01 A3008 RMK A01 T01120008  RH  049%=      5-min Rain = 0
KMC4 190557Z 33011G16KT 11/01 A3008 RMK A01 T01120008  RH  049%=      5-min Rain = 0
KMC4 190558Z 33010KT 11/01 A3008 RMK A01 T01120009  RH  049%=      5-min Rain = 0
KMC4 190559Z 32012KT 11/01 A3008 RMK A01 T01110009  RH  049%=      5-min Rain = 0

Page generated in 0.0721 seconds.